AFR923 FOOL-LFPG
Flight info
| Callsign | AFR923 |
|---|---|
| Flight time | 7h 37m |
| Altitude | 38000 |
| Route | BIPIV1S BIPIV UQ181 TENTU DCT BATIA DCT LIPET UA603 BAKAB UR981 BULIS/N0466F400 DCT MABAP UR722 SAK UG5 KORIS L27 VJF DCT GOXIP DCT LUSEM DCT CNA DCT POI DCT PEPAX DCT ROMGO |
| Aircraft | B772/H-SDE2E3FGHIJ5LORVWXY/LB1D1 |
Departure
| Time | 2026-05-05 06:10 |
|---|---|
| Airport | Libreville Leon M'ba International Airport (FOOL) |
Arrival
| Time | 2026-05-05 13:48 |
|---|---|
| Airport | Charles de Gaulle International Airport (LFPG) |
| Time | Latitude | Longitude | Altitude | Speed | Heading |
|---|---|---|---|---|---|
| 2026-05-05 05:50 | 0.45716 | 9.41109 | 39 ft | 0 kts | 240° |
| 2026-05-05 06:02 | 0.45720 | 9.41116 | 41 ft | 4 kts | 246° |
| 2026-05-05 06:03 | 0.45725 | 9.41141 | 41 ft | 4 kts | 283° |
| 2026-05-05 06:03 | 0.45714 | 9.41164 | 39 ft | 4 kts | 310° |
| 2026-05-05 06:03 | 0.45695 | 9.41183 | 37 ft | 4 kts | 326° |
| 2026-05-05 06:03 | 0.45676 | 9.41193 | 39 ft | 1 kts | 335° |
| 2026-05-05 06:06 | 0.45679 | 9.41192 | 38 ft | 3 kts | 335° |
| 2026-05-05 06:06 | 0.45719 | 9.41174 | 37 ft | 10 kts | 336° |
| 2026-05-05 06:06 | 0.45779 | 9.41156 | 40 ft | 9 kts | 6° |
| 2026-05-05 06:06 | 0.45837 | 9.41216 | 39 ft | 15 kts | 54° |
| 2026-05-05 06:07 | 0.45909 | 9.41211 | 39 ft | 13 kts | 332° |
| 2026-05-05 06:07 | 0.46011 | 9.41160 | 38 ft | 19 kts | 335° |
| 2026-05-05 06:07 | 0.46144 | 9.41097 | 40 ft | 23 kts | 334° |
| 2026-05-05 06:07 | 0.46303 | 9.41021 | 41 ft | 27 kts | 334° |
| 2026-05-05 06:08 | 0.46482 | 9.40935 | 42 ft | 29 kts | 334° |
| 2026-05-05 06:08 | 0.46672 | 9.40843 | 42 ft | 32 kts | 334° |
| 2026-05-05 06:08 | 0.46882 | 9.40741 | 41 ft | 35 kts | 334° |
| 2026-05-05 06:08 | 0.47012 | 9.40656 | 40 ft | 11 kts | 297° |
| 2026-05-05 06:09 | 0.47048 | 9.40620 | 40 ft | 4 kts | 8° |
| 2026-05-05 06:09 | 0.47065 | 9.40644 | 40 ft | 2 kts | 97° |
| 2026-05-05 06:09 | 0.47041 | 9.40666 | 40 ft | 7 kts | 154° |
| 2026-05-05 06:09 | 0.46961 | 9.40704 | 40 ft | 25 kts | 154° |
| 2026-05-05 06:10 | 0.46584 | 9.40884 | 42 ft | 97 kts | 154° |
| 2026-05-05 06:10 | 0.45775 | 9.41273 | 39 ft | 161 kts | 154° |
| 2026-05-05 06:10 | 0.44710 | 9.41770 | 552 ft | 172 kts | 158° |
| 2026-05-05 06:10 | 0.43615 | 9.42137 | 1395 ft | 161 kts | 170° |
| 2026-05-05 06:11 | 0.42465 | 9.42207 | 1939 ft | 176 kts | 182° |
| 2026-05-05 06:11 | 0.41157 | 9.42016 | 2244 ft | 203 kts | 193° |
| 2026-05-05 06:11 | 0.39782 | 9.41416 | 2457 ft | 231 kts | 213° |
| 2026-05-05 06:11 | 0.38595 | 9.40218 | 2723 ft | 256 kts | 236° |
| 2026-05-05 06:12 | 0.37828 | 9.38586 | 3242 ft | 264 kts | 246° |
| 2026-05-05 06:12 | 0.37113 | 9.36860 | 3815 ft | 273 kts | 245° |
| 2026-05-05 06:12 | 0.36324 | 9.35106 | 4444 ft | 279 kts | 244° |
| 2026-05-05 06:12 | 0.35482 | 9.33332 | 5119 ft | 284 kts | 244° |
| 2026-05-05 06:13 | 0.34746 | 9.31514 | 5723 ft | 285 kts | 259° |
| 2026-05-05 06:13 | 0.34693 | 9.30195 | 6055 ft | 290 kts | 279° |
| 2026-05-05 06:13 | 0.35881 | 9.27816 | 6862 ft | 290 kts | 317° |
| 2026-05-05 06:13 | 0.37472 | 9.26650 | 7452 ft | 286 kts | 335° |
| 2026-05-05 06:14 | 0.39274 | 9.25747 | 7938 ft | 293 kts | 337° |
| 2026-05-05 06:14 | 0.41110 | 9.24853 | 8552 ft | 294 kts | 337° |
| 2026-05-05 06:14 | 0.42949 | 9.23948 | 9182 ft | 296 kts | 337° |
| 2026-05-05 06:14 | 0.44803 | 9.23026 | 9760 ft | 299 kts | 337° |
| 2026-05-05 06:15 | 0.46677 | 9.22089 | 10196 ft | 307 kts | 337° |
| 2026-05-05 06:15 | 0.48657 | 9.21122 | 10321 ft | 325 kts | 340° |
| 2026-05-05 06:15 | 0.50811 | 9.20275 | 10529 ft | 339 kts | 343° |
| 2026-05-05 06:15 | 0.53067 | 9.19482 | 10968 ft | 349 kts | 344° |
| 2026-05-05 06:16 | 0.55387 | 9.18668 | 11578 ft | 355 kts | 343° |
| 2026-05-05 06:16 | 0.57715 | 9.17832 | 12346 ft | 358 kts | 343° |
| 2026-05-05 06:16 | 0.60081 | 9.16969 | 13101 ft | 363 kts | 343° |
| 2026-05-05 06:16 | 0.62465 | 9.16091 | 13819 ft | 368 kts | 342° |
| 2026-05-05 06:17 | 0.64858 | 9.15211 | 14487 ft | 373 kts | 342° |
| 2026-05-05 06:17 | 0.67335 | 9.14303 | 15202 ft | 376 kts | 342° |
| 2026-05-05 06:17 | 0.69772 | 9.13411 | 15894 ft | 380 kts | 342° |
| 2026-05-05 06:17 | 0.72257 | 9.12503 | 16590 ft | 384 kts | 342° |
| 2026-05-05 06:18 | 0.74780 | 9.11580 | 17260 ft | 388 kts | 342° |
| 2026-05-05 06:18 | 0.77330 | 9.10647 | 17921 ft | 393 kts | 342° |
| 2026-05-05 06:18 | 0.79909 | 9.09703 | 18514 ft | 397 kts | 342° |
| 2026-05-05 06:18 | 0.82510 | 9.08750 | 19091 ft | 400 kts | 342° |
| 2026-05-05 06:19 | 0.85129 | 9.07790 | 19701 ft | 402 kts | 342° |
| 2026-05-05 06:19 | 0.87767 | 9.06824 | 20275 ft | 404 kts | 341° |
| 2026-05-05 06:19 | 0.90416 | 9.05853 | 20833 ft | 407 kts | 341° |
| 2026-05-05 06:19 | 0.93086 | 9.04875 | 21374 ft | 410 kts | 341° |
| 2026-05-05 06:20 | 0.95772 | 9.03892 | 21889 ft | 413 kts | 341° |
| 2026-05-05 06:20 | 0.97527 | 9.03176 | 22166 ft | 414 kts | 334° |
| 2026-05-05 06:20 | 1.00562 | 9.00782 | 22611 ft | 420 kts | 315° |
| 2026-05-05 06:20 | 1.01931 | 8.99392 | 22829 ft | 425 kts | 316° |
| 2026-05-05 06:21 | 1.04025 | 8.97292 | 23329 ft | 427 kts | 316° |
| 2026-05-05 06:21 | 1.06832 | 8.94518 | 24030 ft | 427 kts | 316° |
| 2026-05-05 06:21 | 1.08269 | 8.93112 | 24347 ft | 428 kts | 317° |
| 2026-05-05 06:21 | 1.10409 | 8.91030 | 24779 ft | 430 kts | 317° |
| 2026-05-05 06:22 | 1.12566 | 8.88942 | 25185 ft | 433 kts | 317° |
| 2026-05-05 06:22 | 1.14712 | 8.86870 | 25636 ft | 435 kts | 317° |
| 2026-05-05 06:22 | 1.16892 | 8.84766 | 26084 ft | 436 kts | 317° |
| 2026-05-05 06:22 | 1.19085 | 8.82652 | 26535 ft | 439 kts | 317° |
| 2026-05-05 06:23 | 1.21286 | 8.80530 | 26959 ft | 442 kts | 317° |
| 2026-05-05 06:23 | 1.23509 | 8.78385 | 27371 ft | 444 kts | 317° |
| 2026-05-05 06:23 | 1.25743 | 8.76230 | 27780 ft | 447 kts | 317° |
| 2026-05-05 06:23 | 1.27987 | 8.74065 | 28194 ft | 450 kts | 317° |
| 2026-05-05 06:24 | 1.30251 | 8.71881 | 28612 ft | 452 kts | 317° |
| 2026-05-05 06:24 | 1.32515 | 8.69695 | 29078 ft | 454 kts | 317° |
| 2026-05-05 06:24 | 1.34763 | 8.67525 | 29528 ft | 456 kts | 317° |
| 2026-05-05 06:24 | 1.37077 | 8.65292 | 29940 ft | 458 kts | 317° |
| 2026-05-05 06:25 | 1.39351 | 8.63097 | 30287 ft | 461 kts | 317° |
| 2026-05-05 06:25 | 1.41665 | 8.60864 | 30628 ft | 463 kts | 317° |
| 2026-05-05 06:25 | 1.43986 | 8.58623 | 30959 ft | 466 kts | 317° |
| 2026-05-05 06:25 | 1.46337 | 8.56354 | 31299 ft | 468 kts | 317° |
| 2026-05-05 06:26 | 1.48687 | 8.54086 | 31679 ft | 469 kts | 317° |
| 2026-05-05 06:26 | 1.51042 | 8.51812 | 32035 ft | 471 kts | 317° |
| 2026-05-05 06:26 | 1.53379 | 8.49556 | 32316 ft | 474 kts | 317° |
| 2026-05-05 06:26 | 1.55760 | 8.47257 | 32619 ft | 477 kts | 317° |
| 2026-05-05 06:27 | 1.58159 | 8.44941 | 32912 ft | 479 kts | 317° |
| 2026-05-05 06:27 | 1.62961 | 8.40304 | 33514 ft | 482 kts | 317° |
| 2026-05-05 06:27 | 1.65381 | 8.37967 | 33774 ft | 484 kts | 317° |
| 2026-05-05 06:28 | 1.67810 | 8.35622 | 34045 ft | 485 kts | 317° |
| 2026-05-05 06:28 | 1.70208 | 8.33307 | 34354 ft | 484 kts | 317° |
| 2026-05-05 06:28 | 1.72633 | 8.30965 | 34625 ft | 485 kts | 317° |
| 2026-05-05 06:28 | 1.75050 | 8.28630 | 34963 ft | 483 kts | 317° |
| 2026-05-05 06:29 | 1.77462 | 8.26300 | 35318 ft | 482 kts | 317° |
| 2026-05-05 06:29 | 1.79875 | 8.23970 | 35622 ft | 481 kts | 317° |
| 2026-05-05 06:29 | 1.82278 | 8.21649 | 35933 ft | 480 kts | 317° |
| 2026-05-05 06:29 | 1.84681 | 8.19327 | 36276 ft | 479 kts | 317° |
| 2026-05-05 06:30 | 1.87070 | 8.17020 | 36637 ft | 477 kts | 317° |
| 2026-05-05 06:30 | 1.89460 | 8.14711 | 36908 ft | 477 kts | 317° |
| 2026-05-05 06:30 | 1.91848 | 8.12403 | 37220 ft | 475 kts | 316° |
| 2026-05-05 06:30 | 1.94223 | 8.10108 | 37505 ft | 475 kts | 317° |
| 2026-05-05 06:31 | 1.96561 | 8.07850 | 37816 ft | 473 kts | 317° |
| 2026-05-05 06:31 | 2.01330 | 8.03243 | 37970 ft | 479 kts | 317° |
| 2026-05-05 06:32 | 2.06133 | 7.98604 | 37942 ft | 478 kts | 316° |
| 2026-05-05 06:32 | 2.10878 | 7.94018 | 37950 ft | 472 kts | 317° |
| 2026-05-05 06:33 | 2.15604 | 7.89451 | 37940 ft | 471 kts | 317° |
| 2026-05-05 06:33 | 2.20307 | 7.84906 | 37944 ft | 469 kts | 317° |
| 2026-05-05 06:34 | 2.25002 | 7.80368 | 37946 ft | 469 kts | 317° |
| 2026-05-05 06:34 | 2.29670 | 7.75857 | 37940 ft | 470 kts | 317° |
| 2026-05-05 06:35 | 2.34381 | 7.71302 | 37939 ft | 472 kts | 317° |
| 2026-05-05 06:35 | 2.39109 | 7.66730 | 37941 ft | 473 kts | 317° |
| 2026-05-05 06:36 | 2.43857 | 7.62138 | 37962 ft | 474 kts | 317° |
| 2026-05-05 06:36 | 2.48611 | 7.57541 | 37938 ft | 475 kts | 317° |
| 2026-05-05 06:37 | 2.53363 | 7.52943 | 37935 ft | 475 kts | 317° |
| 2026-05-05 06:37 | 2.58083 | 7.48377 | 37954 ft | 475 kts | 317° |
| 2026-05-05 06:38 | 2.62574 | 7.43523 | 37963 ft | 476 kts | 311° |
| 2026-05-05 06:38 | 2.66780 | 7.38404 | 37937 ft | 476 kts | 310° |
| 2026-05-05 06:39 | 2.70996 | 7.33300 | 37943 ft | 476 kts | 311° |
| 2026-05-05 06:39 | 2.75265 | 7.28233 | 37958 ft | 476 kts | 311° |
| 2026-05-05 06:40 | 2.79553 | 7.23183 | 37957 ft | 476 kts | 311° |
| 2026-05-05 06:40 | 2.83847 | 7.18127 | 37959 ft | 476 kts | 311° |
| 2026-05-05 06:41 | 2.88102 | 7.13112 | 37938 ft | 476 kts | 311° |
| 2026-05-05 06:41 | 2.92392 | 7.08052 | 37938 ft | 477 kts | 311° |
| 2026-05-05 06:42 | 2.96689 | 7.02982 | 37937 ft | 477 kts | 311° |
| 2026-05-05 06:42 | 3.00969 | 6.97932 | 37936 ft | 477 kts | 311° |
| 2026-05-05 06:43 | 3.05258 | 6.92871 | 37949 ft | 476 kts | 311° |
| 2026-05-05 06:43 | 3.09523 | 6.87837 | 37955 ft | 476 kts | 311° |
| 2026-05-05 06:44 | 3.13813 | 6.82772 | 37948 ft | 476 kts | 311° |
| 2026-05-05 06:44 | 3.18186 | 6.77805 | 37931 ft | 474 kts | 320° |
| 2026-05-05 06:45 | 3.23646 | 6.74161 | 37929 ft | 471 kts | 330° |
| 2026-05-05 06:45 | 3.29252 | 6.70764 | 37952 ft | 471 kts | 329° |
| 2026-05-05 06:46 | 3.34793 | 6.67256 | 37949 ft | 471 kts | 328° |
| 2026-05-05 06:46 | 3.40277 | 6.63715 | 37946 ft | 472 kts | 328° |
| 2026-05-05 06:47 | 3.45790 | 6.60160 | 37949 ft | 472 kts | 328° |
| 2026-05-05 06:47 | 3.51321 | 6.56598 | 37929 ft | 472 kts | 328° |
| 2026-05-05 06:48 | 3.56838 | 6.53040 | 37943 ft | 472 kts | 328° |
| 2026-05-05 06:48 | 3.62364 | 6.49473 | 37941 ft | 472 kts | 328° |
| 2026-05-05 06:49 | 3.67890 | 6.45906 | 37941 ft | 472 kts | 328° |
| 2026-05-05 06:49 | 3.73406 | 6.42345 | 37940 ft | 472 kts | 328° |
| 2026-05-05 06:50 | 3.78927 | 6.38780 | 37948 ft | 472 kts | 328° |
| 2026-05-05 06:50 | 3.84437 | 6.35221 | 37943 ft | 471 kts | 328° |
| 2026-05-05 06:51 | 3.89953 | 6.31658 | 37942 ft | 471 kts | 328° |
| 2026-05-05 06:51 | 3.95455 | 6.28104 | 37941 ft | 470 kts | 328° |
| 2026-05-05 06:52 | 4.00954 | 6.24551 | 37946 ft | 470 kts | 328° |
| 2026-05-05 06:52 | 4.06414 | 6.21023 | 37945 ft | 470 kts | 328° |
| 2026-05-05 06:53 | 4.11939 | 6.17452 | 37945 ft | 470 kts | 328° |
| 2026-05-05 06:53 | 4.17394 | 6.13925 | 37943 ft | 470 kts | 328° |
| 2026-05-05 06:54 | 4.22888 | 6.10372 | 37947 ft | 470 kts | 328° |
| 2026-05-05 06:54 | 4.28376 | 6.06823 | 37951 ft | 470 kts | 327° |
| 2026-05-05 06:55 | 4.33912 | 6.03350 | 37946 ft | 469 kts | 329° |
| 2026-05-05 06:55 | 4.39539 | 6.00019 | 37949 ft | 469 kts | 330° |
| 2026-05-05 06:56 | 4.45157 | 5.96695 | 37949 ft | 469 kts | 329° |
| 2026-05-05 06:56 | 4.50766 | 5.93346 | 37949 ft | 469 kts | 329° |
| 2026-05-05 06:57 | 4.56365 | 5.89989 | 37947 ft | 469 kts | 329° |
| 2026-05-05 06:57 | 4.61967 | 5.86628 | 37952 ft | 469 kts | 329° |
| 2026-05-05 06:58 | 4.67569 | 5.83267 | 37948 ft | 469 kts | 329° |
| 2026-05-05 06:58 | 4.73135 | 5.79929 | 37949 ft | 469 kts | 329° |
| 2026-05-05 06:59 | 4.78777 | 5.76544 | 37947 ft | 469 kts | 329° |
| 2026-05-05 06:59 | 4.84355 | 5.73197 | 37949 ft | 469 kts | 329° |
| 2026-05-05 07:00 | 4.89957 | 5.69834 | 37952 ft | 469 kts | 329° |
| 2026-05-05 07:00 | 4.95562 | 5.66469 | 37954 ft | 469 kts | 329° |
| 2026-05-05 07:01 | 5.01169 | 5.63102 | 37953 ft | 469 kts | 329° |
| 2026-05-05 07:01 | 5.06688 | 5.59610 | 37950 ft | 469 kts | 326° |
| 2026-05-05 07:02 | 5.12059 | 5.55886 | 37952 ft | 469 kts | 325° |
| 2026-05-05 07:02 | 5.17420 | 5.52143 | 37951 ft | 469 kts | 325° |
| 2026-05-05 07:03 | 5.22752 | 5.48442 | 37954 ft | 469 kts | 325° |
| 2026-05-05 07:03 | 5.28130 | 5.44721 | 37953 ft | 469 kts | 326° |
| 2026-05-05 07:04 | 5.33506 | 5.41004 | 37945 ft | 469 kts | 325° |
| 2026-05-05 07:04 | 5.38881 | 5.37286 | 37950 ft | 469 kts | 325° |
| 2026-05-05 07:05 | 5.44259 | 5.33564 | 37956 ft | 469 kts | 325° |
| 2026-05-05 07:05 | 5.49637 | 5.29841 | 37955 ft | 470 kts | 325° |
| 2026-05-05 07:06 | 5.55025 | 5.26110 | 37947 ft | 470 kts | 325° |
| 2026-05-05 07:06 | 5.60409 | 5.22382 | 37948 ft | 470 kts | 325° |
| 2026-05-05 07:07 | 5.65794 | 5.18652 | 37950 ft | 470 kts | 325° |
| 2026-05-05 07:07 | 5.71140 | 5.14947 | 37944 ft | 470 kts | 325° |
| 2026-05-05 07:08 | 5.76524 | 5.11216 | 37945 ft | 470 kts | 325° |
| 2026-05-05 07:08 | 5.81917 | 5.07477 | 37949 ft | 471 kts | 325° |
| 2026-05-05 07:09 | 5.87308 | 5.03738 | 37947 ft | 471 kts | 325° |
| 2026-05-05 07:09 | 5.91818 | 5.00633 | 37942 ft | 472 kts | 326° |
| 2026-05-05 07:10 | 5.97332 | 4.97036 | 37942 ft | 472 kts | 327° |
| 2026-05-05 07:10 | 6.02860 | 4.93466 | 37943 ft | 473 kts | 327° |
| 2026-05-05 07:11 | 6.08383 | 4.89867 | 37941 ft | 473 kts | 327° |
| 2026-05-05 07:11 | 6.13863 | 4.86283 | 37942 ft | 473 kts | 326° |
| 2026-05-05 07:12 | 6.19390 | 4.82670 | 37947 ft | 473 kts | 327° |
| 2026-05-05 07:12 | 6.24917 | 4.79063 | 37943 ft | 474 kts | 327° |
| 2026-05-05 07:13 | 6.30446 | 4.75459 | 37945 ft | 474 kts | 327° |
| 2026-05-05 07:13 | 6.35981 | 4.71847 | 37942 ft | 474 kts | 327° |
| 2026-05-05 07:14 | 6.41514 | 4.68235 | 37946 ft | 474 kts | 327° |
| 2026-05-05 07:14 | 6.47049 | 4.64620 | 37938 ft | 474 kts | 327° |
| 2026-05-05 07:15 | 6.52583 | 4.61005 | 37948 ft | 475 kts | 327° |
| 2026-05-05 07:15 | 6.58082 | 4.57405 | 37948 ft | 475 kts | 327° |
| 2026-05-05 07:16 | 6.63620 | 4.53769 | 37944 ft | 476 kts | 327° |
| 2026-05-05 07:16 | 6.69170 | 4.50125 | 37951 ft | 476 kts | 327° |
| 2026-05-05 07:17 | 6.74722 | 4.46479 | 37951 ft | 476 kts | 326° |
| 2026-05-05 07:17 | 6.80277 | 4.42833 | 37947 ft | 477 kts | 326° |
| 2026-05-05 07:18 | 6.85839 | 4.39189 | 37945 ft | 477 kts | 327° |
| 2026-05-05 07:18 | 6.91396 | 4.35548 | 37950 ft | 477 kts | 327° |
| 2026-05-05 07:19 | 6.96955 | 4.31902 | 37954 ft | 477 kts | 327° |
| 2026-05-05 07:19 | 7.02487 | 4.28272 | 37952 ft | 477 kts | 327° |
| 2026-05-05 07:20 | 7.08050 | 4.24622 | 37946 ft | 477 kts | 327° |
| 2026-05-05 07:20 | 7.13612 | 4.20971 | 37955 ft | 477 kts | 327° |
| 2026-05-05 07:21 | 7.19170 | 4.17321 | 37961 ft | 477 kts | 326° |
| 2026-05-05 07:21 | 7.24720 | 4.13675 | 37959 ft | 476 kts | 326° |
| 2026-05-05 07:22 | 7.30273 | 4.10025 | 37954 ft | 476 kts | 326° |
| 2026-05-05 07:22 | 7.35820 | 4.06379 | 37957 ft | 476 kts | 326° |
| 2026-05-05 07:23 | 7.41364 | 4.02734 | 37955 ft | 475 kts | 326° |
| 2026-05-05 07:23 | 7.46898 | 3.99086 | 37954 ft | 475 kts | 326° |
| 2026-05-05 07:24 | 7.52426 | 3.95436 | 37955 ft | 475 kts | 326° |
| 2026-05-05 07:24 | 7.57924 | 3.91804 | 37955 ft | 475 kts | 326° |
| 2026-05-05 07:25 | 7.63457 | 3.88149 | 37957 ft | 475 kts | 326° |
| 2026-05-05 07:25 | 7.68985 | 3.84496 | 37957 ft | 475 kts | 326° |
| 2026-05-05 07:26 | 7.74519 | 3.80838 | 37956 ft | 475 kts | 326° |
| 2026-05-05 07:26 | 7.80052 | 3.77180 | 37954 ft | 475 kts | 326° |
| 2026-05-05 07:27 | 7.85585 | 3.73521 | 37954 ft | 475 kts | 326° |
| 2026-05-05 07:27 | 7.91077 | 3.69887 | 37957 ft | 475 kts | 326° |
| 2026-05-05 07:28 | 7.96610 | 3.66225 | 37957 ft | 475 kts | 326° |
| 2026-05-05 07:28 | 8.02139 | 3.62564 | 37953 ft | 476 kts | 326° |
| 2026-05-05 07:29 | 8.07678 | 3.58896 | 37957 ft | 476 kts | 326° |
| 2026-05-05 07:29 | 8.13219 | 3.55225 | 37957 ft | 476 kts | 326° |
| 2026-05-05 07:30 | 8.18765 | 3.51549 | 37956 ft | 477 kts | 326° |
| 2026-05-05 07:30 | 8.27080 | 3.46034 | 37957 ft | 477 kts | 326° |
| 2026-05-05 07:31 | 8.32589 | 3.42382 | 37954 ft | 477 kts | 326° |
| 2026-05-05 07:31 | 8.38150 | 3.38711 | 37951 ft | 478 kts | 326° |
| 2026-05-05 07:32 | 8.43724 | 3.35032 | 37957 ft | 478 kts | 326° |
| 2026-05-05 07:32 | 8.49248 | 3.31382 | 37954 ft | 479 kts | 326° |
| 2026-05-05 07:33 | 8.54830 | 3.27691 | 37955 ft | 480 kts | 326° |
| 2026-05-05 07:33 | 8.60428 | 3.23988 | 37953 ft | 480 kts | 326° |
| 2026-05-05 07:34 | 8.65984 | 3.20311 | 37950 ft | 480 kts | 326° |
| 2026-05-05 07:34 | 8.71575 | 3.16607 | 37953 ft | 480 kts | 326° |
| 2026-05-05 07:35 | 8.77153 | 3.12910 | 37954 ft | 479 kts | 326° |
| 2026-05-05 07:35 | 8.82719 | 3.09220 | 37950 ft | 477 kts | 326° |
| 2026-05-05 07:36 | 8.88259 | 3.05545 | 37949 ft | 476 kts | 326° |
| 2026-05-05 07:36 | 8.93783 | 3.01879 | 37958 ft | 473 kts | 326° |
| 2026-05-05 07:37 | 8.99284 | 2.98227 | 37945 ft | 471 kts | 326° |
| 2026-05-05 07:37 | 9.04756 | 2.94593 | 37947 ft | 469 kts | 326° |
| 2026-05-05 07:38 | 9.10092 | 2.90804 | 37955 ft | 467 kts | 322° |
| 2026-05-05 07:38 | 9.15233 | 2.86879 | 37940 ft | 466 kts | 322° |
| 2026-05-05 07:39 | 9.20392 | 2.82924 | 37942 ft | 465 kts | 322° |
| 2026-05-05 07:39 | 9.25560 | 2.78982 | 37948 ft | 465 kts | 322° |
| 2026-05-05 07:40 | 9.30742 | 2.75041 | 37945 ft | 466 kts | 322° |
| 2026-05-05 07:40 | 9.35938 | 2.71092 | 37940 ft | 467 kts | 322° |
| 2026-05-05 07:41 | 9.41148 | 2.67129 | 37945 ft | 469 kts | 322° |
| 2026-05-05 07:41 | 9.46364 | 2.63159 | 37951 ft | 468 kts | 322° |
| 2026-05-05 07:42 | 9.51579 | 2.59190 | 37938 ft | 468 kts | 322° |
| 2026-05-05 07:42 | 9.56743 | 2.55257 | 37932 ft | 467 kts | 322° |
| 2026-05-05 07:43 | 9.61929 | 2.51305 | 37938 ft | 466 kts | 322° |
| 2026-05-05 07:43 | 9.67095 | 2.47368 | 37931 ft | 465 kts | 322° |
| 2026-05-05 07:44 | 9.72263 | 2.43427 | 37933 ft | 464 kts | 322° |
| 2026-05-05 07:44 | 9.77414 | 2.39498 | 37934 ft | 464 kts | 322° |
| 2026-05-05 07:45 | 9.82574 | 2.35560 | 37935 ft | 463 kts | 322° |
| 2026-05-05 07:45 | 9.87728 | 2.31625 | 37930 ft | 463 kts | 322° |
| 2026-05-05 07:46 | 9.92860 | 2.27706 | 37939 ft | 464 kts | 323° |
| 2026-05-05 07:46 | 9.98024 | 2.23760 | 37930 ft | 465 kts | 323° |
| 2026-05-05 07:47 | 10.03201 | 2.19804 | 37922 ft | 466 kts | 323° |
| 2026-05-05 07:47 | 10.08379 | 2.15845 | 37923 ft | 466 kts | 323° |
| 2026-05-05 07:48 | 10.13560 | 2.11881 | 37925 ft | 466 kts | 323° |
| 2026-05-05 07:48 | 10.18736 | 2.07920 | 37920 ft | 465 kts | 323° |
| 2026-05-05 07:49 | 10.23906 | 2.03962 | 37919 ft | 465 kts | 322° |
| 2026-05-05 07:49 | 10.29039 | 2.00030 | 37917 ft | 465 kts | 322° |
| 2026-05-05 07:50 | 10.34200 | 1.96075 | 37922 ft | 464 kts | 322° |
| 2026-05-05 07:50 | 10.39359 | 1.92120 | 37919 ft | 464 kts | 322° |
| 2026-05-05 07:51 | 10.44511 | 1.88169 | 37915 ft | 464 kts | 322° |
| 2026-05-05 07:51 | 10.49666 | 1.84214 | 37916 ft | 464 kts | 322° |
| 2026-05-05 07:52 | 10.54764 | 1.80300 | 37919 ft | 464 kts | 322° |
| 2026-05-05 07:52 | 10.59916 | 1.76345 | 37915 ft | 464 kts | 322° |
| 2026-05-05 07:53 | 10.65071 | 1.72384 | 37916 ft | 464 kts | 322° |
| 2026-05-05 07:53 | 10.70027 | 1.68575 | 37916 ft | 464 kts | 322° |
| 2026-05-05 07:54 | 10.75206 | 1.64593 | 37915 ft | 463 kts | 322° |
| 2026-05-05 07:54 | 10.80319 | 1.60660 | 37916 ft | 463 kts | 322° |
| 2026-05-05 07:55 | 10.85465 | 1.56699 | 37918 ft | 463 kts | 322° |
| 2026-05-05 07:55 | 10.90449 | 1.52861 | 37917 ft | 463 kts | 322° |
| 2026-05-05 07:56 | 10.94720 | 1.49570 | 37911 ft | 463 kts | 322° |
| 2026-05-05 07:56 | 10.99919 | 1.45694 | 37909 ft | 463 kts | 327° |
| 2026-05-05 07:57 | 11.05618 | 1.42632 | 37917 ft | 463 kts | 334° |
| 2026-05-05 07:57 | 11.11448 | 1.39800 | 37912 ft | 464 kts | 334° |
| 2026-05-05 07:58 | 11.17268 | 1.36950 | 37916 ft | 464 kts | 333° |
| 2026-05-05 07:58 | 11.23078 | 1.34080 | 37915 ft | 464 kts | 333° |
| 2026-05-05 07:59 | 11.28877 | 1.31204 | 37915 ft | 464 kts | 333° |
| 2026-05-05 07:59 | 11.34675 | 1.28327 | 37923 ft | 463 kts | 333° |
| 2026-05-05 08:00 | 11.40455 | 1.25457 | 37912 ft | 461 kts | 333° |
| 2026-05-05 08:00 | 11.46215 | 1.22598 | 37914 ft | 459 kts | 333° |
| 2026-05-05 08:01 | 11.51918 | 1.19765 | 37916 ft | 458 kts | 333° |
| 2026-05-05 08:01 | 11.57636 | 1.16924 | 37915 ft | 456 kts | 333° |
| 2026-05-05 08:02 | 11.63345 | 1.14086 | 37917 ft | 455 kts | 333° |
| 2026-05-05 08:02 | 11.69034 | 1.11256 | 37923 ft | 454 kts | 333° |
| 2026-05-05 08:03 | 11.74713 | 1.08431 | 37915 ft | 453 kts | 333° |
| 2026-05-05 08:03 | 11.80375 | 1.05612 | 37920 ft | 452 kts | 333° |
| 2026-05-05 08:04 | 11.86031 | 1.02795 | 37922 ft | 452 kts | 333° |
| 2026-05-05 08:04 | 11.91653 | 0.99993 | 37921 ft | 452 kts | 333° |
| 2026-05-05 08:05 | 11.97315 | 0.97171 | 37924 ft | 453 kts | 333° |
| 2026-05-05 08:05 | 12.02983 | 0.94344 | 37923 ft | 453 kts | 333° |
| 2026-05-05 08:06 | 12.08664 | 0.91509 | 37931 ft | 454 kts | 333° |
| 2026-05-05 08:06 | 12.14340 | 0.88676 | 37922 ft | 454 kts | 333° |
| 2026-05-05 08:07 | 12.20012 | 0.85843 | 37926 ft | 454 kts | 333° |
| 2026-05-05 08:07 | 12.25687 | 0.83007 | 37925 ft | 454 kts | 333° |
| 2026-05-05 08:08 | 12.31355 | 0.80174 | 37926 ft | 453 kts | 333° |
| 2026-05-05 08:08 | 12.36985 | 0.77358 | 37926 ft | 453 kts | 333° |
| 2026-05-05 08:09 | 12.42682 | 0.74507 | 37937 ft | 453 kts | 333° |
| 2026-05-05 08:09 | 12.48307 | 0.71691 | 37930 ft | 453 kts | 333° |
| 2026-05-05 08:10 | 12.53967 | 0.68855 | 37925 ft | 453 kts | 333° |
| 2026-05-05 08:10 | 12.59628 | 0.66018 | 37928 ft | 453 kts | 333° |
| 2026-05-05 08:11 | 12.65288 | 0.63180 | 37924 ft | 453 kts | 333° |
| 2026-05-05 08:11 | 12.70938 | 0.60346 | 37924 ft | 453 kts | 333° |
| 2026-05-05 08:12 | 12.76595 | 0.57507 | 37923 ft | 453 kts | 333° |
| 2026-05-05 08:12 | 12.82253 | 0.54666 | 37926 ft | 452 kts | 332° |
| 2026-05-05 08:13 | 12.87908 | 0.51825 | 37920 ft | 452 kts | 332° |
| 2026-05-05 08:13 | 12.93550 | 0.48988 | 37919 ft | 451 kts | 332° |
| 2026-05-05 08:14 | 12.99155 | 0.46170 | 37916 ft | 451 kts | 332° |
| 2026-05-05 08:14 | 13.04792 | 0.43333 | 37914 ft | 451 kts | 332° |
| 2026-05-05 08:15 | 13.10420 | 0.40500 | 37906 ft | 450 kts | 332° |
| 2026-05-05 08:15 | 13.16045 | 0.37667 | 37923 ft | 450 kts | 332° |
| 2026-05-05 08:16 | 13.21662 | 0.34836 | 37908 ft | 449 kts | 332° |
| 2026-05-05 08:16 | 13.27270 | 0.32009 | 37907 ft | 448 kts | 332° |
| 2026-05-05 08:17 | 13.32829 | 0.29204 | 37905 ft | 447 kts | 332° |
| 2026-05-05 08:17 | 13.38399 | 0.26393 | 37900 ft | 447 kts | 332° |
| 2026-05-05 08:18 | 13.43974 | 0.23578 | 37900 ft | 446 kts | 332° |
| 2026-05-05 08:18 | 13.49502 | 0.20784 | 37902 ft | 446 kts | 332° |
| 2026-05-05 08:19 | 13.55062 | 0.17974 | 37905 ft | 445 kts | 331° |
| 2026-05-05 08:19 | 13.60624 | 0.15161 | 37896 ft | 444 kts | 331° |
| 2026-05-05 08:20 | 13.66171 | 0.12353 | 37895 ft | 444 kts | 331° |
| 2026-05-05 08:20 | 13.71682 | 0.09563 | 37901 ft | 443 kts | 331° |
| 2026-05-05 08:21 | 13.77211 | 0.06761 | 37898 ft | 443 kts | 331° |
| 2026-05-05 08:21 | 13.82750 | 0.03953 | 37897 ft | 443 kts | 331° |
| 2026-05-05 08:22 | 13.88287 | 0.01146 | 37909 ft | 443 kts | 331° |
| 2026-05-05 08:22 | 13.94147 | -0.00876 | 37898 ft | 448 kts | 345° |
| 2026-05-05 08:23 | 14.00375 | -0.01552 | 37915 ft | 453 kts | 355° |
| 2026-05-05 08:23 | 14.06645 | -0.01554 | 37898 ft | 453 kts | 356° |
| 2026-05-05 08:24 | 14.12954 | -0.01533 | 37904 ft | 453 kts | 355° |
| 2026-05-05 08:24 | 14.19257 | -0.01545 | 37887 ft | 453 kts | 355° |
| 2026-05-05 08:25 | 14.25553 | -0.01576 | 37895 ft | 452 kts | 354° |
| 2026-05-05 08:25 | 14.31846 | -0.01613 | 37896 ft | 452 kts | 354° |
| 2026-05-05 08:26 | 14.38131 | -0.01650 | 37888 ft | 451 kts | 354° |
| 2026-05-05 08:26 | 14.44411 | -0.01686 | 37897 ft | 451 kts | 354° |
| 2026-05-05 08:27 | 14.50683 | -0.01721 | 37891 ft | 450 kts | 354° |
| 2026-05-05 08:27 | 14.56943 | -0.01756 | 37892 ft | 450 kts | 354° |
| 2026-05-05 08:28 | 14.63207 | -0.01792 | 37898 ft | 450 kts | 354° |
| 2026-05-05 08:28 | 14.69471 | -0.01827 | 37895 ft | 450 kts | 354° |
| 2026-05-05 08:29 | 14.75729 | -0.01862 | 37894 ft | 450 kts | 354° |
| 2026-05-05 08:30 | 14.85124 | -0.01915 | 37899 ft | 450 kts | 354° |
| 2026-05-05 08:30 | 14.91349 | -0.01950 | 37898 ft | 450 kts | 354° |
| 2026-05-05 08:31 | 14.97611 | -0.01985 | 37896 ft | 450 kts | 354° |
| 2026-05-05 08:31 | 15.03875 | -0.02021 | 37892 ft | 450 kts | 354° |
| 2026-05-05 08:32 | 15.10134 | -0.02056 | 37894 ft | 449 kts | 354° |
| 2026-05-05 08:32 | 15.16390 | -0.02091 | 37891 ft | 449 kts | 354° |
| 2026-05-05 08:33 | 15.22633 | -0.02126 | 37896 ft | 448 kts | 354° |
| 2026-05-05 08:33 | 15.28873 | -0.02161 | 37911 ft | 448 kts | 354° |
| 2026-05-05 08:34 | 15.35110 | -0.02196 | 37901 ft | 448 kts | 353° |
| 2026-05-05 08:34 | 15.41341 | -0.02232 | 37897 ft | 447 kts | 353° |
| 2026-05-05 08:35 | 15.47525 | -0.02267 | 37891 ft | 447 kts | 353° |
| 2026-05-05 08:35 | 15.53738 | -0.02302 | 37893 ft | 447 kts | 353° |
| 2026-05-05 08:36 | 15.59953 | -0.02337 | 37890 ft | 446 kts | 353° |
| 2026-05-05 08:36 | 15.66167 | -0.02372 | 37913 ft | 446 kts | 353° |
| 2026-05-05 08:37 | 15.72376 | -0.02408 | 37895 ft | 446 kts | 353° |
| 2026-05-05 08:37 | 15.78582 | -0.02443 | 37894 ft | 445 kts | 353° |
| 2026-05-05 08:38 | 15.84786 | -0.02478 | 37894 ft | 445 kts | 353° |
| 2026-05-05 08:38 | 15.90976 | -0.02513 | 37896 ft | 444 kts | 353° |
| 2026-05-05 08:39 | 15.97114 | -0.02548 | 37892 ft | 444 kts | 353° |
| 2026-05-05 08:39 | 16.03298 | -0.02583 | 37904 ft | 444 kts | 353° |
| 2026-05-05 08:40 | 16.09479 | -0.02618 | 37890 ft | 443 kts | 353° |
| 2026-05-05 08:40 | 16.15647 | -0.02653 | 37895 ft | 443 kts | 352° |
| 2026-05-05 08:41 | 16.21727 | -0.03047 | 37897 ft | 429 kts | 340° |
| 2026-05-05 08:41 | 16.27245 | -0.05199 | 37900 ft | 422 kts | 326° |
| 2026-05-05 08:42 | 16.31286 | -0.08013 | 37890 ft | 422 kts | 321° |
| 2026-05-05 08:42 | 16.36087 | -0.11567 | 37902 ft | 425 kts | 321° |
| 2026-05-05 08:43 | 16.40923 | -0.15122 | 37889 ft | 425 kts | 321° |
| 2026-05-05 08:43 | 16.45766 | -0.18657 | 37883 ft | 424 kts | 321° |
| 2026-05-05 08:44 | 16.50591 | -0.22169 | 37885 ft | 422 kts | 321° |
| 2026-05-05 08:44 | 16.55396 | -0.25666 | 37884 ft | 420 kts | 321° |
| 2026-05-05 08:45 | 16.60180 | -0.29151 | 37883 ft | 418 kts | 321° |
| 2026-05-05 08:45 | 16.64901 | -0.32594 | 37886 ft | 416 kts | 321° |
| 2026-05-05 08:46 | 16.69639 | -0.36051 | 37881 ft | 415 kts | 321° |
| 2026-05-05 08:46 | 16.74367 | -0.39504 | 37893 ft | 415 kts | 321° |
| 2026-05-05 08:47 | 16.79091 | -0.42955 | 37885 ft | 415 kts | 321° |
| 2026-05-05 08:47 | 16.83819 | -0.46411 | 37886 ft | 414 kts | 321° |
| 2026-05-05 08:48 | 16.88547 | -0.49870 | 37883 ft | 415 kts | 321° |
| 2026-05-05 08:48 | 16.93280 | -0.53334 | 37886 ft | 416 kts | 321° |
| 2026-05-05 08:49 | 16.98023 | -0.56808 | 37874 ft | 417 kts | 321° |
| 2026-05-05 08:49 | 17.02775 | -0.60290 | 37879 ft | 418 kts | 321° |
| 2026-05-05 08:50 | 17.07538 | -0.63783 | 37874 ft | 418 kts | 321° |
| 2026-05-05 08:50 | 17.12299 | -0.67276 | 37875 ft | 418 kts | 321° |
| 2026-05-05 08:51 | 17.17053 | -0.70766 | 37880 ft | 417 kts | 321° |
| 2026-05-05 08:51 | 17.21767 | -0.74229 | 37894 ft | 416 kts | 321° |
| 2026-05-05 08:52 | 17.26503 | -0.77711 | 37891 ft | 415 kts | 320° |
| 2026-05-05 08:52 | 17.31226 | -0.81186 | 37877 ft | 415 kts | 320° |
| 2026-05-05 08:53 | 17.35948 | -0.84662 | 37880 ft | 414 kts | 320° |
| 2026-05-05 08:53 | 17.40656 | -0.88130 | 37899 ft | 414 kts | 320° |
| 2026-05-05 08:54 | 17.45373 | -0.91607 | 37882 ft | 414 kts | 320° |
| 2026-05-05 08:54 | 17.50080 | -0.95078 | 37893 ft | 414 kts | 320° |
| 2026-05-05 08:55 | 17.54754 | -0.98528 | 37891 ft | 413 kts | 320° |
| 2026-05-05 08:55 | 17.59463 | -1.02005 | 37890 ft | 413 kts | 320° |
| 2026-05-05 08:56 | 17.64164 | -1.05480 | 37893 ft | 413 kts | 320° |
| 2026-05-05 08:56 | 17.68857 | -1.08950 | 37897 ft | 413 kts | 320° |
| 2026-05-05 08:57 | 17.73552 | -1.12424 | 37896 ft | 413 kts | 320° |
| 2026-05-05 08:57 | 17.78246 | -1.15899 | 37894 ft | 413 kts | 320° |
| 2026-05-05 08:58 | 17.82941 | -1.19378 | 37900 ft | 413 kts | 320° |
| 2026-05-05 08:58 | 17.87629 | -1.22855 | 37898 ft | 413 kts | 320° |
| 2026-05-05 08:59 | 17.92330 | -1.26342 | 37902 ft | 413 kts | 320° |
| 2026-05-05 08:59 | 17.96998 | -1.29808 | 37902 ft | 413 kts | 320° |
| 2026-05-05 09:00 | 18.01695 | -1.33297 | 37904 ft | 413 kts | 320° |
| 2026-05-05 09:00 | 18.06392 | -1.36790 | 37907 ft | 413 kts | 320° |
| 2026-05-05 09:01 | 18.11087 | -1.40283 | 37910 ft | 413 kts | 320° |
| 2026-05-05 09:01 | 18.15778 | -1.43774 | 37906 ft | 413 kts | 320° |
| 2026-05-05 09:02 | 18.20483 | -1.47276 | 37902 ft | 413 kts | 320° |
| 2026-05-05 09:02 | 18.25154 | -1.50755 | 37908 ft | 413 kts | 320° |
| 2026-05-05 09:03 | 18.29854 | -1.54259 | 37906 ft | 414 kts | 319° |
| 2026-05-05 09:03 | 18.34557 | -1.57768 | 37909 ft | 414 kts | 319° |
| 2026-05-05 09:04 | 18.39232 | -1.61259 | 37903 ft | 414 kts | 319° |
| 2026-05-05 09:04 | 18.43945 | -1.64780 | 37922 ft | 415 kts | 319° |
| 2026-05-05 09:05 | 18.48650 | -1.68298 | 37906 ft | 415 kts | 319° |
| 2026-05-05 09:05 | 18.53349 | -1.71814 | 37910 ft | 414 kts | 319° |
| 2026-05-05 09:06 | 18.58042 | -1.75327 | 37915 ft | 414 kts | 319° |
| 2026-05-05 09:06 | 18.62730 | -1.78840 | 37912 ft | 413 kts | 319° |
| 2026-05-05 09:07 | 18.67412 | -1.82353 | 37907 ft | 413 kts | 319° |
| 2026-05-05 09:07 | 18.72084 | -1.85861 | 37911 ft | 412 kts | 319° |
| 2026-05-05 09:08 | 18.76751 | -1.89369 | 37906 ft | 412 kts | 319° |
| 2026-05-05 09:08 | 18.81413 | -1.92874 | 37911 ft | 411 kts | 319° |
| 2026-05-05 09:09 | 18.86048 | -1.96363 | 37915 ft | 411 kts | 319° |
| 2026-05-05 09:09 | 18.90697 | -1.99864 | 37909 ft | 411 kts | 319° |
| 2026-05-05 09:10 | 18.95351 | -2.03371 | 37907 ft | 410 kts | 319° |
| 2026-05-05 09:10 | 19.00003 | -2.06879 | 37913 ft | 410 kts | 319° |
| 2026-05-05 09:11 | 19.04647 | -2.10384 | 37917 ft | 410 kts | 319° |
| 2026-05-05 09:11 | 19.09293 | -2.13893 | 37914 ft | 410 kts | 319° |
| 2026-05-05 09:12 | 19.13940 | -2.17404 | 37918 ft | 410 kts | 319° |
| 2026-05-05 09:12 | 19.18588 | -2.20919 | 37910 ft | 410 kts | 319° |
| 2026-05-05 09:13 | 19.23231 | -2.24433 | 37912 ft | 410 kts | 319° |
| 2026-05-05 09:13 | 19.27867 | -2.27943 | 37912 ft | 410 kts | 319° |
| 2026-05-05 09:14 | 19.32503 | -2.31456 | 37913 ft | 410 kts | 318° |
| 2026-05-05 09:14 | 19.37118 | -2.34956 | 37916 ft | 410 kts | 318° |
| 2026-05-05 09:15 | 19.41760 | -2.38480 | 37920 ft | 410 kts | 318° |
| 2026-05-05 09:15 | 19.46404 | -2.42006 | 37937 ft | 410 kts | 318° |
| 2026-05-05 09:16 | 19.51021 | -2.45515 | 37921 ft | 410 kts | 318° |
| 2026-05-05 09:16 | 19.55656 | -2.49040 | 37917 ft | 410 kts | 318° |
| 2026-05-05 09:17 | 19.60289 | -2.52567 | 37917 ft | 409 kts | 318° |
| 2026-05-05 09:17 | 19.64915 | -2.56089 | 37919 ft | 409 kts | 318° |
| 2026-05-05 09:18 | 19.69532 | -2.59608 | 37918 ft | 408 kts | 318° |
| 2026-05-05 09:18 | 19.74148 | -2.63130 | 37920 ft | 408 kts | 318° |
| 2026-05-05 09:19 | 19.78756 | -2.66647 | 37941 ft | 408 kts | 317° |
| 2026-05-05 09:19 | 19.83336 | -2.70146 | 37927 ft | 408 kts | 317° |
| 2026-05-05 09:20 | 19.87947 | -2.73671 | 37920 ft | 408 kts | 317° |
| 2026-05-05 09:20 | 19.92550 | -2.77192 | 37920 ft | 408 kts | 317° |
| 2026-05-05 09:21 | 19.97158 | -2.80720 | 37920 ft | 408 kts | 317° |
| 2026-05-05 09:21 | 20.01761 | -2.84246 | 37924 ft | 407 kts | 317° |
| 2026-05-05 09:22 | 20.06368 | -2.87779 | 37923 ft | 408 kts | 317° |
| 2026-05-05 09:22 | 20.10969 | -2.91308 | 37924 ft | 408 kts | 317° |
| 2026-05-05 09:23 | 20.15540 | -2.94818 | 37914 ft | 408 kts | 317° |
| 2026-05-05 09:23 | 20.20139 | -2.98352 | 37923 ft | 407 kts | 317° |
| 2026-05-05 09:24 | 20.24737 | -3.01887 | 37922 ft | 407 kts | 317° |
| 2026-05-05 09:24 | 20.29323 | -3.05416 | 37927 ft | 407 kts | 317° |
| 2026-05-05 09:25 | 20.33922 | -3.08957 | 37922 ft | 407 kts | 317° |
| 2026-05-05 09:25 | 20.38513 | -3.12496 | 37923 ft | 407 kts | 317° |
| 2026-05-05 09:26 | 20.43110 | -3.16042 | 37928 ft | 407 kts | 317° |
| 2026-05-05 09:26 | 20.47573 | -3.19665 | 37934 ft | 404 kts | 312° |
| 2026-05-05 09:27 | 20.52088 | -3.23298 | 37932 ft | 406 kts | 316° |
| 2026-05-05 09:27 | 20.56723 | -3.26751 | 37931 ft | 406 kts | 316° |
| 2026-05-05 09:28 | 20.60566 | -3.29639 | 37930 ft | 406 kts | 316° |
| 2026-05-05 09:28 | 20.65164 | -3.33148 | 37929 ft | 406 kts | 316° |
| 2026-05-05 09:29 | 20.69738 | -3.36673 | 37921 ft | 406 kts | 316° |
| 2026-05-05 09:29 | 20.75057 | -3.40787 | 37925 ft | 406 kts | 316° |
| 2026-05-05 09:30 | 20.78888 | -3.43754 | 37948 ft | 406 kts | 316° |
| 2026-05-05 09:30 | 20.83467 | -3.47303 | 37919 ft | 407 kts | 316° |
| 2026-05-05 09:31 | 20.88048 | -3.50858 | 37935 ft | 407 kts | 316° |
| 2026-05-05 09:31 | 20.92631 | -3.54418 | 37931 ft | 407 kts | 316° |
| 2026-05-05 09:32 | 20.97179 | -3.57955 | 37940 ft | 407 kts | 316° |
| 2026-05-05 09:32 | 21.01766 | -3.61525 | 37940 ft | 407 kts | 316° |
| 2026-05-05 09:33 | 21.06355 | -3.65101 | 37936 ft | 407 kts | 316° |
| 2026-05-05 09:33 | 21.10937 | -3.68674 | 37959 ft | 407 kts | 315° |
| 2026-05-05 09:34 | 21.15491 | -3.72228 | 37926 ft | 407 kts | 315° |
| 2026-05-05 09:34 | 21.20068 | -3.75804 | 37931 ft | 407 kts | 315° |
| 2026-05-05 09:35 | 21.24647 | -3.79384 | 37929 ft | 407 kts | 315° |
| 2026-05-05 09:35 | 21.31506 | -3.84752 | 37931 ft | 406 kts | 315° |
| 2026-05-05 09:36 | 21.36051 | -3.88313 | 37931 ft | 406 kts | 315° |
| 2026-05-05 09:36 | 21.40618 | -3.91892 | 37935 ft | 406 kts | 315° |
| 2026-05-05 09:37 | 21.45185 | -3.95474 | 37930 ft | 406 kts | 315° |
| 2026-05-05 09:37 | 21.49751 | -3.99060 | 37938 ft | 406 kts | 315° |
| 2026-05-05 09:38 | 21.54290 | -4.02627 | 37942 ft | 406 kts | 315° |
| 2026-05-05 09:38 | 21.58857 | -4.06219 | 37935 ft | 407 kts | 315° |
| 2026-05-05 09:39 | 21.63428 | -4.09817 | 37936 ft | 407 kts | 315° |
| 2026-05-05 09:39 | 21.67994 | -4.13414 | 37934 ft | 407 kts | 315° |
| 2026-05-05 09:40 | 21.72557 | -4.17011 | 37936 ft | 407 kts | 315° |
| 2026-05-05 09:40 | 21.77125 | -4.20617 | 37949 ft | 407 kts | 315° |
| 2026-05-05 09:41 | 21.81675 | -4.24211 | 37941 ft | 407 kts | 315° |
| 2026-05-05 09:41 | 21.86245 | -4.27822 | 37937 ft | 407 kts | 315° |
| 2026-05-05 09:42 | 21.90816 | -4.31437 | 37940 ft | 407 kts | 315° |
| 2026-05-05 09:42 | 21.95376 | -4.35048 | 37943 ft | 407 kts | 315° |
| 2026-05-05 09:43 | 21.99941 | -4.38664 | 37937 ft | 407 kts | 315° |
| 2026-05-05 09:43 | 22.04502 | -4.42280 | 37941 ft | 407 kts | 315° |
| 2026-05-05 09:44 | 22.09063 | -4.45900 | 37946 ft | 407 kts | 315° |
| 2026-05-05 09:44 | 22.13630 | -4.49528 | 37944 ft | 408 kts | 315° |
| 2026-05-05 09:45 | 22.18173 | -4.53139 | 37942 ft | 408 kts | 315° |
| 2026-05-05 09:45 | 22.22748 | -4.56779 | 37941 ft | 409 kts | 315° |
| 2026-05-05 09:46 | 22.27325 | -4.60423 | 37941 ft | 409 kts | 315° |
| 2026-05-05 09:46 | 22.31912 | -4.64079 | 37939 ft | 409 kts | 315° |
| 2026-05-05 09:47 | 22.36500 | -4.67737 | 37937 ft | 409 kts | 315° |
| 2026-05-05 09:47 | 22.41082 | -4.71395 | 37939 ft | 410 kts | 316° |
| 2026-05-05 09:48 | 22.45651 | -4.75046 | 37942 ft | 411 kts | 316° |
| 2026-05-05 09:48 | 22.50256 | -4.78728 | 37941 ft | 412 kts | 316° |
| 2026-05-05 09:49 | 22.54869 | -4.82419 | 37941 ft | 413 kts | 316° |
| 2026-05-05 09:49 | 22.59488 | -4.86119 | 37941 ft | 413 kts | 316° |
| 2026-05-05 09:50 | 22.64083 | -4.89802 | 37942 ft | 414 kts | 316° |
| 2026-05-05 09:50 | 22.68740 | -4.93538 | 37944 ft | 414 kts | 316° |
| 2026-05-05 09:51 | 22.73332 | -4.97229 | 37951 ft | 415 kts | 315° |
| 2026-05-05 09:51 | 22.77969 | -5.00989 | 37947 ft | 417 kts | 315° |
| 2026-05-05 09:52 | 22.82647 | -5.04755 | 37947 ft | 420 kts | 315° |
| 2026-05-05 09:52 | 22.87358 | -5.08537 | 37944 ft | 422 kts | 315° |
| 2026-05-05 09:53 | 22.92082 | -5.12333 | 37944 ft | 423 kts | 315° |
| 2026-05-05 09:53 | 22.96811 | -5.16141 | 37946 ft | 423 kts | 315° |
| 2026-05-05 09:54 | 23.01540 | -5.19954 | 37945 ft | 423 kts | 315° |
| 2026-05-05 09:54 | 23.06268 | -5.23772 | 37947 ft | 423 kts | 315° |
| 2026-05-05 09:55 | 23.10998 | -5.27595 | 37941 ft | 423 kts | 315° |
| 2026-05-05 09:55 | 23.15722 | -5.31417 | 37948 ft | 423 kts | 315° |
| 2026-05-05 09:56 | 23.20410 | -5.35215 | 37946 ft | 423 kts | 315° |
| 2026-05-05 09:56 | 23.25124 | -5.39036 | 37951 ft | 423 kts | 315° |
| 2026-05-05 09:57 | 23.29840 | -5.42863 | 37957 ft | 423 kts | 315° |
| 2026-05-05 09:57 | 23.34556 | -5.46693 | 37976 ft | 423 kts | 315° |
| 2026-05-05 09:58 | 23.39280 | -5.50535 | 37957 ft | 424 kts | 315° |
| 2026-05-05 09:58 | 23.44010 | -5.54384 | 37951 ft | 424 kts | 315° |
| 2026-05-05 09:59 | 23.48744 | -5.58240 | 37951 ft | 425 kts | 315° |
| 2026-05-05 09:59 | 23.53478 | -5.62099 | 37955 ft | 425 kts | 315° |
| 2026-05-05 10:00 | 23.58185 | -5.65941 | 37955 ft | 425 kts | 315° |
| 2026-05-05 10:00 | 23.62930 | -5.69816 | 37958 ft | 426 kts | 315° |
| 2026-05-05 10:01 | 23.67673 | -5.73695 | 37953 ft | 427 kts | 315° |
| 2026-05-05 10:01 | 23.72422 | -5.77581 | 37956 ft | 427 kts | 315° |
| 2026-05-05 10:02 | 23.77185 | -5.81481 | 37954 ft | 427 kts | 315° |
| 2026-05-05 10:02 | 23.81909 | -5.85354 | 37955 ft | 427 kts | 315° |
| 2026-05-05 10:03 | 23.86668 | -5.89259 | 37955 ft | 426 kts | 315° |
| 2026-05-05 10:03 | 23.91414 | -5.93158 | 37956 ft | 426 kts | 315° |
| 2026-05-05 10:04 | 23.96119 | -5.97026 | 37982 ft | 426 kts | 315° |
| 2026-05-05 10:04 | 24.00854 | -6.00923 | 37962 ft | 426 kts | 315° |
| 2026-05-05 10:05 | 24.05594 | -6.04829 | 37954 ft | 426 kts | 315° |
| 2026-05-05 10:05 | 24.10326 | -6.08731 | 37959 ft | 425 kts | 315° |
| 2026-05-05 10:06 | 24.15053 | -6.12633 | 37963 ft | 425 kts | 314° |
| 2026-05-05 10:06 | 24.19749 | -6.16513 | 37960 ft | 425 kts | 314° |
| 2026-05-05 10:07 | 24.24477 | -6.20422 | 37959 ft | 425 kts | 314° |
| 2026-05-05 10:07 | 24.29200 | -6.24334 | 37965 ft | 426 kts | 314° |
| 2026-05-05 10:08 | 24.33927 | -6.28252 | 37968 ft | 426 kts | 314° |
| 2026-05-05 10:08 | 24.38653 | -6.32174 | 37960 ft | 426 kts | 314° |
| 2026-05-05 10:09 | 24.43376 | -6.36098 | 37962 ft | 426 kts | 314° |
| 2026-05-05 10:09 | 24.48098 | -6.40025 | 37965 ft | 426 kts | 314° |
| 2026-05-05 10:10 | 24.52823 | -6.43957 | 37966 ft | 426 kts | 314° |
| 2026-05-05 10:10 | 24.57513 | -6.47864 | 37967 ft | 426 kts | 314° |
| 2026-05-05 10:11 | 24.62236 | -6.51803 | 37971 ft | 426 kts | 314° |
| 2026-05-05 10:11 | 24.66963 | -6.55749 | 37969 ft | 426 kts | 314° |
| 2026-05-05 10:12 | 24.71687 | -6.59696 | 37974 ft | 426 kts | 314° |
| 2026-05-05 10:12 | 24.76404 | -6.63641 | 37976 ft | 426 kts | 314° |
| 2026-05-05 10:13 | 24.81125 | -6.67593 | 37977 ft | 426 kts | 314° |
| 2026-05-05 10:13 | 24.85847 | -6.71550 | 37980 ft | 426 kts | 314° |
| 2026-05-05 10:14 | 24.90569 | -6.75508 | 37982 ft | 427 kts | 314° |
| 2026-05-05 10:14 | 24.95266 | -6.79451 | 37975 ft | 426 kts | 314° |
| 2026-05-05 10:15 | 24.99984 | -6.83417 | 37974 ft | 426 kts | 314° |
| 2026-05-05 10:15 | 25.04689 | -6.87376 | 37976 ft | 426 kts | 314° |
| 2026-05-05 10:16 | 25.09398 | -6.91343 | 37971 ft | 425 kts | 314° |
| 2026-05-05 10:16 | 25.14099 | -6.95307 | 37971 ft | 425 kts | 314° |
| 2026-05-05 10:17 | 25.18004 | -6.98601 | 37992 ft | 425 kts | 314° |
| 2026-05-05 10:17 | 25.23468 | -7.03217 | 37979 ft | 425 kts | 314° |
| 2026-05-05 10:18 | 25.28167 | -7.07190 | 37972 ft | 425 kts | 314° |
| 2026-05-05 10:18 | 25.32102 | -7.10520 | 37973 ft | 425 kts | 314° |
| 2026-05-05 10:19 | 25.36796 | -7.14497 | 37970 ft | 425 kts | 314° |
| 2026-05-05 10:19 | 25.41454 | -7.18447 | 37974 ft | 425 kts | 314° |
| 2026-05-05 10:20 | 25.46148 | -7.22432 | 37976 ft | 425 kts | 313° |
| 2026-05-05 10:20 | 25.50841 | -7.26420 | 37979 ft | 425 kts | 313° |
| 2026-05-05 10:21 | 25.55528 | -7.30406 | 37972 ft | 425 kts | 313° |
| 2026-05-05 10:21 | 25.60203 | -7.34381 | 37973 ft | 425 kts | 313° |
| 2026-05-05 10:22 | 25.64885 | -7.38363 | 37974 ft | 424 kts | 313° |
| 2026-05-05 10:22 | 25.69568 | -7.42353 | 37974 ft | 424 kts | 313° |
| 2026-05-05 10:23 | 25.74244 | -7.46341 | 37976 ft | 424 kts | 313° |
| 2026-05-05 10:23 | 25.78918 | -7.50332 | 37986 ft | 425 kts | 313° |
| 2026-05-05 10:24 | 25.83595 | -7.54328 | 37978 ft | 423 kts | 313° |
| 2026-05-05 10:24 | 25.88252 | -7.58312 | 37976 ft | 422 kts | 313° |
| 2026-05-05 10:25 | 25.92895 | -7.62288 | 37978 ft | 421 kts | 313° |
| 2026-05-05 10:25 | 25.97511 | -7.66246 | 37977 ft | 421 kts | 312° |
| 2026-05-05 10:26 | 26.02147 | -7.70226 | 37974 ft | 421 kts | 312° |
| 2026-05-05 10:26 | 26.06779 | -7.74205 | 37997 ft | 421 kts | 312° |
| 2026-05-05 10:27 | 26.11422 | -7.78199 | 37981 ft | 421 kts | 312° |
| 2026-05-05 10:27 | 26.16058 | -7.82189 | 37980 ft | 421 kts | 312° |
| 2026-05-05 10:28 | 26.20696 | -7.86186 | 37984 ft | 421 kts | 312° |
| 2026-05-05 10:28 | 26.25335 | -7.90188 | 37983 ft | 421 kts | 312° |
| 2026-05-05 10:29 | 26.29941 | -7.94165 | 37985 ft | 422 kts | 312° |
| 2026-05-05 10:29 | 26.34581 | -7.98176 | 38027 ft | 422 kts | 312° |
| 2026-05-05 10:30 | 26.39224 | -8.02195 | 37991 ft | 422 kts | 311° |
| 2026-05-05 10:30 | 26.43867 | -8.06216 | 37992 ft | 422 kts | 311° |
| 2026-05-05 10:31 | 26.48514 | -8.10246 | 37989 ft | 422 kts | 311° |
| 2026-05-05 10:31 | 26.53128 | -8.14250 | 37988 ft | 422 kts | 311° |
| 2026-05-05 10:32 | 26.57763 | -8.18277 | 37986 ft | 422 kts | 311° |
| 2026-05-05 10:32 | 26.62395 | -8.22306 | 37988 ft | 422 kts | 311° |
| 2026-05-05 10:33 | 26.67033 | -8.26345 | 37981 ft | 422 kts | 311° |
| 2026-05-05 10:33 | 26.71653 | -8.30373 | 37975 ft | 421 kts | 311° |
| 2026-05-05 10:34 | 26.76273 | -8.34404 | 37990 ft | 420 kts | 311° |
| 2026-05-05 10:34 | 26.80851 | -8.38403 | 37985 ft | 420 kts | 311° |
| 2026-05-05 10:35 | 26.85459 | -8.42433 | 37987 ft | 420 kts | 311° |
| 2026-05-05 10:35 | 26.90066 | -8.46466 | 37986 ft | 420 kts | 311° |
| 2026-05-05 10:36 | 26.94678 | -8.50508 | 37991 ft | 421 kts | 311° |
| 2026-05-05 10:36 | 26.99293 | -8.54558 | 37989 ft | 421 kts | 311° |
| 2026-05-05 10:37 | 27.03877 | -8.58583 | 37982 ft | 421 kts | 311° |
| 2026-05-05 10:37 | 27.08479 | -8.62628 | 37982 ft | 420 kts | 311° |
| 2026-05-05 10:38 | 27.13082 | -8.66679 | 37982 ft | 420 kts | 311° |
| 2026-05-05 10:38 | 27.17681 | -8.70731 | 37983 ft | 420 kts | 311° |
| 2026-05-05 10:39 | 27.22280 | -8.74788 | 37998 ft | 420 kts | 311° |
| 2026-05-05 10:39 | 27.26879 | -8.78849 | 37987 ft | 420 kts | 311° |
| 2026-05-05 10:40 | 27.31476 | -8.82912 | 37982 ft | 419 kts | 311° |
| 2026-05-05 10:40 | 27.36058 | -8.86966 | 37983 ft | 419 kts | 311° |
| 2026-05-05 10:41 | 27.40639 | -8.91025 | 37985 ft | 419 kts | 311° |
| 2026-05-05 10:41 | 27.45185 | -8.95056 | 37987 ft | 419 kts | 311° |
| 2026-05-05 10:42 | 27.52051 | -9.01154 | 37983 ft | 419 kts | 311° |
| 2026-05-05 10:43 | 27.56636 | -9.05233 | 37987 ft | 419 kts | 311° |
| 2026-05-05 10:43 | 27.61208 | -9.09303 | 37995 ft | 419 kts | 311° |
| 2026-05-05 10:44 | 27.66255 | -9.12747 | 37995 ft | 447 kts | 332° |
| 2026-05-05 10:44 | 27.69367 | -9.13444 | 37994 ft | 467 kts | 345° |
| 2026-05-05 10:44 | 27.72711 | -9.13273 | 38006 ft | 493 kts | 359° |
| 2026-05-05 10:44 | 27.76076 | -9.12605 | 38139 ft | 501 kts | 0° |
| 2026-05-05 10:45 | 27.79500 | -9.11842 | 38370 ft | 506 kts | 1° |
| 2026-05-05 10:45 | 27.82956 | -9.11053 | 38593 ft | 508 kts | 1° |
| 2026-05-05 10:45 | 27.86417 | -9.10272 | 38904 ft | 506 kts | 1° |
| 2026-05-05 10:45 | 27.89848 | -9.09520 | 39168 ft | 505 kts | 0° |
| 2026-05-05 10:46 | 27.93240 | -9.08800 | 39365 ft | 505 kts | 0° |
| 2026-05-05 10:46 | 27.96698 | -9.08084 | 39603 ft | 504 kts | 0° |
| 2026-05-05 10:46 | 28.00150 | -9.07379 | 39849 ft | 504 kts | 0° |
| 2026-05-05 10:47 | 28.07073 | -9.05981 | 40006 ft | 509 kts | 0° |
| 2026-05-05 10:47 | 28.14072 | -9.04560 | 39996 ft | 511 kts | 0° |
| 2026-05-05 10:48 | 28.21073 | -9.03124 | 39993 ft | 509 kts | 0° |
| 2026-05-05 10:48 | 28.28025 | -9.01694 | 39987 ft | 508 kts | 0° |
| 2026-05-05 10:49 | 28.34943 | -9.00273 | 39980 ft | 507 kts | 0° |
| 2026-05-05 10:49 | 28.41892 | -8.98845 | 39976 ft | 506 kts | 0° |
| 2026-05-05 10:50 | 28.48826 | -8.97420 | 39972 ft | 506 kts | 0° |
| 2026-05-05 10:50 | 28.55768 | -8.95990 | 39977 ft | 507 kts | 0° |
| 2026-05-05 10:51 | 28.62682 | -8.94564 | 39965 ft | 508 kts | 0° |
| 2026-05-05 10:51 | 28.69645 | -8.93126 | 39974 ft | 510 kts | 0° |
| 2026-05-05 10:52 | 28.76641 | -8.91678 | 39962 ft | 511 kts | 0° |
| 2026-05-05 10:52 | 28.83648 | -8.90226 | 39952 ft | 512 kts | 0° |
| 2026-05-05 10:53 | 28.90650 | -8.88771 | 39952 ft | 512 kts | 0° |
| 2026-05-05 10:53 | 28.97664 | -8.87313 | 39989 ft | 512 kts | 360° |
| 2026-05-05 10:54 | 29.04682 | -8.85854 | 39946 ft | 512 kts | 360° |
| 2026-05-05 10:54 | 29.11687 | -8.84393 | 39945 ft | 511 kts | 360° |
| 2026-05-05 10:55 | 29.18680 | -8.82932 | 39956 ft | 510 kts | 360° |
| 2026-05-05 10:55 | 29.25664 | -8.81473 | 39965 ft | 510 kts | 360° |
| 2026-05-05 10:56 | 29.32642 | -8.80013 | 39959 ft | 510 kts | 360° |
| 2026-05-05 10:56 | 29.39613 | -8.78553 | 39949 ft | 509 kts | 360° |
| 2026-05-05 10:57 | 29.46584 | -8.77088 | 39969 ft | 508 kts | 360° |
| 2026-05-05 10:57 | 29.53505 | -8.75636 | 39962 ft | 508 kts | 359° |
| 2026-05-05 10:58 | 29.60463 | -8.74174 | 39984 ft | 509 kts | 359° |
| 2026-05-05 10:58 | 29.67443 | -8.72704 | 39988 ft | 510 kts | 359° |
| 2026-05-05 10:59 | 29.74425 | -8.71227 | 39995 ft | 510 kts | 359° |
| 2026-05-05 10:59 | 29.81398 | -8.69752 | 40012 ft | 509 kts | 359° |
| 2026-05-05 11:00 | 29.88374 | -8.68278 | 40012 ft | 509 kts | 359° |
| 2026-05-05 11:00 | 29.95347 | -8.66801 | 40011 ft | 509 kts | 359° |
| 2026-05-05 11:01 | 30.02304 | -8.65324 | 40022 ft | 508 kts | 359° |
| 2026-05-05 11:01 | 30.09217 | -8.63854 | 40014 ft | 507 kts | 359° |
| 2026-05-05 11:02 | 30.16168 | -8.62375 | 40021 ft | 508 kts | 359° |
| 2026-05-05 11:02 | 30.23134 | -8.60892 | 40015 ft | 509 kts | 359° |
| 2026-05-05 11:03 | 30.30077 | -8.59408 | 40019 ft | 507 kts | 359° |
| 2026-05-05 11:03 | 30.37013 | -8.57925 | 40020 ft | 507 kts | 359° |
| 2026-05-05 11:04 | 30.43964 | -8.56438 | 40017 ft | 507 kts | 359° |
| 2026-05-05 11:04 | 30.50858 | -8.54961 | 40019 ft | 507 kts | 359° |
| 2026-05-05 11:05 | 30.57787 | -8.53473 | 40019 ft | 507 kts | 359° |
| 2026-05-05 11:05 | 30.64722 | -8.51983 | 40021 ft | 507 kts | 359° |
| 2026-05-05 11:06 | 30.70499 | -8.50739 | 40056 ft | 507 kts | 359° |
| 2026-05-05 11:06 | 30.77452 | -8.49241 | 40034 ft | 507 kts | 359° |
| 2026-05-05 11:07 | 30.84392 | -8.47740 | 40056 ft | 506 kts | 359° |
| 2026-05-05 11:07 | 30.91335 | -8.46238 | 40059 ft | 508 kts | 359° |
| 2026-05-05 11:08 | 30.98305 | -8.44729 | 40084 ft | 509 kts | 359° |
| 2026-05-05 11:08 | 31.05268 | -8.43225 | 40061 ft | 508 kts | 359° |
| 2026-05-05 11:09 | 31.12221 | -8.41715 | 40048 ft | 508 kts | 359° |
| 2026-05-05 11:09 | 31.19157 | -8.40202 | 40047 ft | 505 kts | 359° |
| 2026-05-05 11:10 | 31.26001 | -8.38707 | 40070 ft | 502 kts | 359° |
| 2026-05-05 11:10 | 31.32855 | -8.37213 | 40052 ft | 500 kts | 359° |
| 2026-05-05 11:11 | 31.39692 | -8.35720 | 40044 ft | 498 kts | 359° |
| 2026-05-05 11:11 | 31.46508 | -8.34231 | 40040 ft | 497 kts | 359° |
| 2026-05-05 11:12 | 31.53266 | -8.32752 | 40082 ft | 497 kts | 360° |
| 2026-05-05 11:12 | 31.60077 | -8.31259 | 40049 ft | 497 kts | 360° |
| 2026-05-05 11:13 | 31.66882 | -8.29763 | 40052 ft | 497 kts | 360° |
| 2026-05-05 11:13 | 31.73696 | -8.28263 | 40035 ft | 498 kts | 360° |
| 2026-05-05 11:14 | 31.80466 | -8.26771 | 40048 ft | 498 kts | 360° |
| 2026-05-05 11:14 | 31.87292 | -8.25266 | 40052 ft | 499 kts | 0° |
| 2026-05-05 11:15 | 31.94130 | -8.23753 | 40043 ft | 500 kts | 0° |
| 2026-05-05 11:15 | 32.00977 | -8.22235 | 40050 ft | 500 kts | 0° |
| 2026-05-05 11:16 | 32.07815 | -8.20718 | 40055 ft | 500 kts | 0° |
| 2026-05-05 11:16 | 32.14666 | -8.19228 | 40050 ft | 499 kts | 360° |
| 2026-05-05 11:17 | 32.21503 | -8.18105 | 40051 ft | 495 kts | 358° |
| 2026-05-05 11:17 | 32.28338 | -8.17086 | 40044 ft | 495 kts | 358° |
| 2026-05-05 11:18 | 32.35169 | -8.16011 | 40058 ft | 495 kts | 358° |
| 2026-05-05 11:18 | 32.42002 | -8.14898 | 40057 ft | 495 kts | 359° |
| 2026-05-05 11:19 | 32.48828 | -8.13778 | 40053 ft | 495 kts | 359° |
| 2026-05-05 11:19 | 32.55648 | -8.12661 | 40055 ft | 493 kts | 359° |
| 2026-05-05 11:20 | 32.62431 | -8.11552 | 40054 ft | 492 kts | 359° |
| 2026-05-05 11:20 | 32.69224 | -8.10440 | 40062 ft | 492 kts | 360° |
| 2026-05-05 11:21 | 32.75962 | -8.09337 | 40051 ft | 491 kts | 360° |
| 2026-05-05 11:21 | 32.82736 | -8.08238 | 40055 ft | 491 kts | 360° |
| 2026-05-05 11:22 | 32.89517 | -8.07073 | 40055 ft | 495 kts | 4° |
| 2026-05-05 11:22 | 32.96167 | -8.04618 | 40075 ft | 508 kts | 16° |
| 2026-05-05 11:23 | 33.02503 | -8.00706 | 40056 ft | 515 kts | 23° |
| 2026-05-05 11:23 | 33.08731 | -7.96488 | 40068 ft | 515 kts | 23° |
| 2026-05-05 11:24 | 33.14939 | -7.92329 | 40061 ft | 515 kts | 23° |
| 2026-05-05 11:24 | 33.21209 | -7.88185 | 40063 ft | 515 kts | 22° |
| 2026-05-05 11:25 | 33.27482 | -7.84046 | 40082 ft | 515 kts | 23° |
| 2026-05-05 11:25 | 33.33758 | -7.79893 | 40066 ft | 515 kts | 23° |
| 2026-05-05 11:26 | 33.40031 | -7.75730 | 40068 ft | 515 kts | 23° |
| 2026-05-05 11:26 | 33.46258 | -7.71591 | 40097 ft | 515 kts | 23° |
| 2026-05-05 11:27 | 33.52529 | -7.67417 | 40081 ft | 515 kts | 23° |
| 2026-05-05 11:27 | 33.58874 | -7.63472 | 40074 ft | 512 kts | 20° |
| 2026-05-05 11:28 | 33.65021 | -7.59833 | 40077 ft | 511 kts | 20° |
| 2026-05-05 11:28 | 33.71368 | -7.56034 | 40073 ft | 510 kts | 21° |
| 2026-05-05 11:29 | 33.77711 | -7.52184 | 40085 ft | 510 kts | 21° |
| 2026-05-05 11:29 | 33.83983 | -7.48359 | 40086 ft | 509 kts | 21° |
| 2026-05-05 11:30 | 33.89499 | -7.44991 | 40089 ft | 509 kts | 21° |
| 2026-05-05 11:30 | 33.95808 | -7.41137 | 40091 ft | 508 kts | 21° |
| 2026-05-05 11:31 | 34.02111 | -7.37282 | 40113 ft | 508 kts | 21° |
| 2026-05-05 11:31 | 34.08410 | -7.33421 | 40102 ft | 508 kts | 21° |
| 2026-05-05 11:32 | 34.14715 | -7.29551 | 40093 ft | 508 kts | 21° |
| 2026-05-05 11:32 | 34.21018 | -7.25678 | 40093 ft | 508 kts | 21° |
| 2026-05-05 11:33 | 34.27309 | -7.21804 | 40117 ft | 508 kts | 22° |
| 2026-05-05 11:33 | 34.33607 | -7.17919 | 40093 ft | 508 kts | 22° |
| 2026-05-05 11:34 | 34.39864 | -7.14052 | 40092 ft | 507 kts | 22° |
| 2026-05-05 11:34 | 34.46147 | -7.10163 | 40092 ft | 507 kts | 22° |
| 2026-05-05 11:35 | 34.52419 | -7.06273 | 40097 ft | 507 kts | 22° |
| 2026-05-05 11:35 | 34.58702 | -7.02372 | 40101 ft | 507 kts | 22° |
| 2026-05-05 11:36 | 34.64992 | -6.98488 | 40087 ft | 506 kts | 21° |
| 2026-05-05 11:36 | 34.71261 | -6.94659 | 40083 ft | 506 kts | 21° |
| 2026-05-05 11:37 | 34.77508 | -6.90836 | 40085 ft | 506 kts | 21° |
| 2026-05-05 11:37 | 34.83796 | -6.86974 | 40091 ft | 506 kts | 22° |
| 2026-05-05 11:38 | 34.90076 | -6.83105 | 40073 ft | 506 kts | 22° |
| 2026-05-05 11:38 | 34.96347 | -6.79235 | 40081 ft | 505 kts | 22° |
| 2026-05-05 11:39 | 35.02620 | -6.75359 | 40080 ft | 505 kts | 22° |
| 2026-05-05 11:39 | 35.08887 | -6.71479 | 40091 ft | 505 kts | 22° |
| 2026-05-05 11:40 | 35.15157 | -6.67591 | 40069 ft | 505 kts | 22° |
| 2026-05-05 11:40 | 35.21409 | -6.63706 | 40073 ft | 504 kts | 22° |
| 2026-05-05 11:41 | 35.27655 | -6.59819 | 40073 ft | 504 kts | 22° |
| 2026-05-05 11:41 | 35.33864 | -6.55949 | 40092 ft | 504 kts | 22° |
| 2026-05-05 11:42 | 35.40109 | -6.52048 | 40068 ft | 504 kts | 22° |
| 2026-05-05 11:42 | 35.46356 | -6.48127 | 40065 ft | 504 kts | 23° |
| 2026-05-05 11:43 | 35.52556 | -6.44084 | 40066 ft | 505 kts | 24° |
| 2026-05-05 11:43 | 35.58749 | -6.40005 | 40097 ft | 505 kts | 23° |
| 2026-05-05 11:44 | 35.64961 | -6.35932 | 40069 ft | 506 kts | 23° |
| 2026-05-05 11:44 | 35.71170 | -6.31861 | 40063 ft | 506 kts | 23° |
| 2026-05-05 11:45 | 35.77348 | -6.27806 | 40057 ft | 506 kts | 23° |
| 2026-05-05 11:45 | 35.83559 | -6.23733 | 40057 ft | 506 kts | 23° |
| 2026-05-05 11:46 | 35.89788 | -6.19720 | 40072 ft | 505 kts | 22° |
| 2026-05-05 11:46 | 35.96027 | -6.15710 | 40072 ft | 505 kts | 23° |
| 2026-05-05 11:47 | 36.02255 | -6.11677 | 40064 ft | 505 kts | 23° |
| 2026-05-05 11:47 | 36.08478 | -6.07637 | 40064 ft | 505 kts | 23° |
| 2026-05-05 11:48 | 36.17818 | -6.01565 | 40055 ft | 506 kts | 23° |
| 2026-05-05 11:48 | 36.24060 | -5.97523 | 40072 ft | 505 kts | 21° |
| 2026-05-05 11:49 | 36.30469 | -5.94025 | 40073 ft | 503 kts | 18° |
| 2026-05-05 11:49 | 36.36891 | -5.90704 | 40063 ft | 503 kts | 17° |
| 2026-05-05 11:50 | 36.43346 | -5.87343 | 40051 ft | 503 kts | 18° |
| 2026-05-05 11:50 | 36.49796 | -5.83940 | 40050 ft | 503 kts | 18° |
| 2026-05-05 11:51 | 36.56234 | -5.80523 | 40049 ft | 503 kts | 18° |
| 2026-05-05 11:51 | 36.62668 | -5.77102 | 40076 ft | 502 kts | 18° |
| 2026-05-05 11:52 | 36.69103 | -5.73674 | 40051 ft | 503 kts | 18° |
| 2026-05-05 11:52 | 36.75539 | -5.70242 | 40039 ft | 503 kts | 18° |
| 2026-05-05 11:53 | 36.81940 | -5.66823 | 40043 ft | 504 kts | 18° |
| 2026-05-05 11:53 | 36.88390 | -5.63371 | 40051 ft | 506 kts | 18° |
| 2026-05-05 11:54 | 36.94866 | -5.59900 | 40048 ft | 506 kts | 18° |
| 2026-05-05 11:54 | 37.00260 | -5.57002 | 40047 ft | 507 kts | 18° |
| 2026-05-05 11:55 | 37.06791 | -5.53488 | 40045 ft | 508 kts | 18° |
| 2026-05-05 11:55 | 37.13241 | -5.50010 | 40064 ft | 508 kts | 18° |
| 2026-05-05 11:56 | 37.19736 | -5.46502 | 40048 ft | 508 kts | 18° |
| 2026-05-05 11:56 | 37.26230 | -5.42988 | 40040 ft | 508 kts | 18° |
| 2026-05-05 11:57 | 37.32720 | -5.39469 | 40022 ft | 508 kts | 18° |
| 2026-05-05 11:57 | 37.39198 | -5.35951 | 40029 ft | 507 kts | 18° |
| 2026-05-05 11:58 | 37.45684 | -5.32421 | 40022 ft | 507 kts | 18° |
| 2026-05-05 11:58 | 37.52162 | -5.28890 | 40016 ft | 508 kts | 18° |
| 2026-05-05 11:59 | 37.58649 | -5.25347 | 40023 ft | 508 kts | 18° |
| 2026-05-05 11:59 | 37.65138 | -5.21796 | 40030 ft | 509 kts | 18° |
| 2026-05-05 12:00 | 37.71648 | -5.18226 | 40024 ft | 509 kts | 18° |
| 2026-05-05 12:00 | 37.78148 | -5.14656 | 40017 ft | 510 kts | 18° |
| 2026-05-05 12:01 | 37.84608 | -5.11099 | 40050 ft | 509 kts | 18° |
| 2026-05-05 12:01 | 37.91121 | -5.07507 | 40016 ft | 510 kts | 18° |
| 2026-05-05 12:02 | 37.97619 | -5.03917 | 40013 ft | 509 kts | 18° |
| 2026-05-05 12:02 | 38.04118 | -5.00318 | 40007 ft | 509 kts | 18° |
| 2026-05-05 12:03 | 38.10602 | -4.96722 | 40025 ft | 508 kts | 18° |
| 2026-05-05 12:03 | 38.17034 | -4.93147 | 40009 ft | 508 kts | 18° |
| 2026-05-05 12:04 | 38.23510 | -4.89539 | 40009 ft | 507 kts | 18° |
| 2026-05-05 12:04 | 38.29953 | -4.85946 | 40004 ft | 506 kts | 18° |
| 2026-05-05 12:05 | 38.36405 | -4.82339 | 40008 ft | 506 kts | 18° |
| 2026-05-05 12:05 | 38.42850 | -4.78729 | 40010 ft | 505 kts | 18° |
| 2026-05-05 12:06 | 38.49282 | -4.75119 | 40006 ft | 505 kts | 18° |
| 2026-05-05 12:06 | 38.55715 | -4.71501 | 40012 ft | 505 kts | 18° |
| 2026-05-05 12:07 | 38.62162 | -4.67870 | 40014 ft | 506 kts | 18° |
| 2026-05-05 12:07 | 38.68607 | -4.64231 | 40004 ft | 506 kts | 18° |
| 2026-05-05 12:08 | 38.75010 | -4.60607 | 40001 ft | 506 kts | 18° |
| 2026-05-05 12:08 | 38.81452 | -4.56956 | 40018 ft | 505 kts | 18° |
| 2026-05-05 12:09 | 38.87886 | -4.53303 | 40009 ft | 505 kts | 18° |
| 2026-05-05 12:09 | 38.94318 | -4.49641 | 40010 ft | 505 kts | 18° |
| 2026-05-05 12:10 | 39.00738 | -4.45981 | 40011 ft | 506 kts | 18° |
| 2026-05-05 12:10 | 39.07108 | -4.42346 | 40014 ft | 508 kts | 18° |
| 2026-05-05 12:11 | 39.13587 | -4.38643 | 39996 ft | 510 kts | 19° |
| 2026-05-05 12:11 | 39.20082 | -4.34922 | 39994 ft | 512 kts | 19° |
| 2026-05-05 12:12 | 39.26603 | -4.31176 | 39994 ft | 513 kts | 19° |
| 2026-05-05 12:12 | 39.33146 | -4.27410 | 40001 ft | 515 kts | 19° |
| 2026-05-05 12:13 | 39.39693 | -4.23635 | 39991 ft | 516 kts | 19° |
| 2026-05-05 12:13 | 39.46244 | -4.19847 | 39986 ft | 516 kts | 19° |
| 2026-05-05 12:14 | 39.52802 | -4.16048 | 40008 ft | 515 kts | 19° |
| 2026-05-05 12:14 | 39.59295 | -4.12279 | 39992 ft | 514 kts | 19° |
| 2026-05-05 12:15 | 39.65813 | -4.08489 | 39984 ft | 512 kts | 19° |
| 2026-05-05 12:15 | 39.72304 | -4.04706 | 39970 ft | 510 kts | 19° |
| 2026-05-05 12:16 | 39.78763 | -4.00935 | 39978 ft | 508 kts | 19° |
| 2026-05-05 12:16 | 39.85207 | -3.97164 | 39984 ft | 506 kts | 19° |
| 2026-05-05 12:17 | 39.91580 | -3.93428 | 39981 ft | 504 kts | 19° |
| 2026-05-05 12:17 | 39.97971 | -3.89673 | 40009 ft | 503 kts | 19° |
| 2026-05-05 12:18 | 40.04339 | -3.85925 | 39986 ft | 503 kts | 19° |
| 2026-05-05 12:18 | 40.10713 | -3.82165 | 39993 ft | 503 kts | 19° |
| 2026-05-05 12:19 | 40.17061 | -3.78413 | 39978 ft | 504 kts | 19° |
| 2026-05-05 12:19 | 40.23433 | -3.74639 | 40002 ft | 505 kts | 20° |
| 2026-05-05 12:20 | 40.29748 | -3.70891 | 39997 ft | 507 kts | 20° |
| 2026-05-05 12:20 | 40.36173 | -3.67068 | 39996 ft | 508 kts | 20° |
| 2026-05-05 12:21 | 40.42609 | -3.63231 | 39997 ft | 509 kts | 20° |
| 2026-05-05 12:21 | 40.49022 | -3.59401 | 39971 ft | 509 kts | 20° |
| 2026-05-05 12:22 | 40.55465 | -3.55542 | 39964 ft | 508 kts | 20° |
| 2026-05-05 12:22 | 40.61897 | -3.51683 | 39968 ft | 507 kts | 20° |
| 2026-05-05 12:23 | 40.68314 | -3.47826 | 39967 ft | 506 kts | 20° |
| 2026-05-05 12:23 | 40.74720 | -3.43967 | 39966 ft | 506 kts | 20° |
| 2026-05-05 12:24 | 40.81124 | -3.40100 | 39959 ft | 506 kts | 20° |
| 2026-05-05 12:24 | 40.87530 | -3.36225 | 39994 ft | 506 kts | 20° |
| 2026-05-05 12:25 | 40.93940 | -3.32339 | 39963 ft | 507 kts | 21° |
| 2026-05-05 12:25 | 41.00324 | -3.28459 | 39973 ft | 508 kts | 21° |
| 2026-05-05 12:26 | 41.06755 | -3.24545 | 39984 ft | 509 kts | 21° |
| 2026-05-05 12:26 | 41.13191 | -3.20616 | 39989 ft | 509 kts | 21° |
| 2026-05-05 12:27 | 41.19620 | -3.16683 | 39982 ft | 509 kts | 21° |
| 2026-05-05 12:27 | 41.26047 | -3.12744 | 39981 ft | 508 kts | 21° |
| 2026-05-05 12:28 | 41.32471 | -3.08799 | 39989 ft | 508 kts | 21° |
| 2026-05-05 12:28 | 41.38878 | -3.04854 | 39981 ft | 507 kts | 21° |
| 2026-05-05 12:29 | 41.45267 | -3.00912 | 39983 ft | 506 kts | 21° |
| 2026-05-05 12:29 | 41.51621 | -2.96984 | 39986 ft | 506 kts | 21° |
| 2026-05-05 12:30 | 41.58016 | -2.93023 | 39985 ft | 506 kts | 21° |
| 2026-05-05 12:30 | 41.64417 | -2.89048 | 39980 ft | 506 kts | 21° |
| 2026-05-05 12:31 | 41.70810 | -2.85069 | 39982 ft | 507 kts | 21° |
| 2026-05-05 12:31 | 41.77199 | -2.81084 | 39995 ft | 507 kts | 22° |
| 2026-05-05 12:32 | 41.83593 | -2.77087 | 39976 ft | 506 kts | 22° |
| 2026-05-05 12:32 | 41.89975 | -2.73089 | 39971 ft | 506 kts | 22° |
| 2026-05-05 12:33 | 41.96314 | -2.69109 | 39987 ft | 506 kts | 22° |
| 2026-05-05 12:33 | 42.02692 | -2.65096 | 39972 ft | 507 kts | 22° |
| 2026-05-05 12:34 | 42.09081 | -2.61066 | 39968 ft | 506 kts | 22° |
| 2026-05-05 12:34 | 42.15462 | -2.57032 | 39974 ft | 506 kts | 22° |
| 2026-05-05 12:35 | 42.21841 | -2.52992 | 39981 ft | 506 kts | 22° |
| 2026-05-05 12:35 | 42.28214 | -2.48945 | 39973 ft | 506 kts | 22° |
| 2026-05-05 12:36 | 42.34588 | -2.44889 | 39973 ft | 506 kts | 22° |
| 2026-05-05 12:36 | 42.40952 | -2.40830 | 39981 ft | 506 kts | 23° |
| 2026-05-05 12:37 | 42.47321 | -2.36759 | 39969 ft | 506 kts | 23° |
| 2026-05-05 12:37 | 42.53642 | -2.32710 | 39965 ft | 506 kts | 23° |
| 2026-05-05 12:38 | 42.60012 | -2.28620 | 39973 ft | 505 kts | 23° |
| 2026-05-05 12:38 | 42.66367 | -2.24529 | 39982 ft | 505 kts | 23° |
| 2026-05-05 12:39 | 42.72714 | -2.20435 | 39991 ft | 505 kts | 23° |
| 2026-05-05 12:39 | 42.79071 | -2.16325 | 39997 ft | 505 kts | 23° |
| 2026-05-05 12:40 | 42.85426 | -2.12208 | 40009 ft | 505 kts | 23° |
| 2026-05-05 12:40 | 42.91770 | -2.08088 | 40007 ft | 505 kts | 23° |
| 2026-05-05 12:41 | 42.97046 | -2.04653 | 40011 ft | 505 kts | 23° |
| 2026-05-05 12:41 | 43.03405 | -2.00506 | 40029 ft | 506 kts | 24° |
| 2026-05-05 12:42 | 43.10774 | -1.95688 | 40026 ft | 505 kts | 24° |
| 2026-05-05 12:42 | 43.16081 | -1.92209 | 40024 ft | 505 kts | 24° |
| 2026-05-05 12:43 | 43.22422 | -1.88045 | 40031 ft | 505 kts | 24° |
| 2026-05-05 12:43 | 43.28754 | -1.83876 | 40024 ft | 505 kts | 24° |
| 2026-05-05 12:44 | 43.35082 | -1.79700 | 40023 ft | 505 kts | 24° |
| 2026-05-05 12:44 | 43.41408 | -1.75601 | 40017 ft | 505 kts | 22° |
| 2026-05-05 12:45 | 43.47777 | -1.71693 | 40018 ft | 505 kts | 22° |
| 2026-05-05 12:45 | 43.54208 | -1.67767 | 40037 ft | 505 kts | 22° |
| 2026-05-05 12:46 | 43.60627 | -1.63807 | 40042 ft | 504 kts | 22° |
| 2026-05-05 12:46 | 43.67031 | -1.59827 | 40024 ft | 504 kts | 22° |
| 2026-05-05 12:47 | 43.73378 | -1.55868 | 40024 ft | 503 kts | 22° |
| 2026-05-05 12:47 | 43.79757 | -1.51881 | 40007 ft | 503 kts | 22° |
| 2026-05-05 12:48 | 43.86144 | -1.47882 | 40013 ft | 503 kts | 23° |
| 2026-05-05 12:48 | 43.92513 | -1.43885 | 40005 ft | 503 kts | 23° |
| 2026-05-05 12:49 | 43.98892 | -1.39872 | 39998 ft | 503 kts | 23° |
| 2026-05-05 12:49 | 44.05266 | -1.35852 | 40007 ft | 503 kts | 23° |
| 2026-05-05 12:50 | 44.11602 | -1.31847 | 39993 ft | 503 kts | 23° |
| 2026-05-05 12:50 | 44.17977 | -1.27808 | 39985 ft | 503 kts | 23° |
| 2026-05-05 12:51 | 44.24351 | -1.23759 | 39985 ft | 503 kts | 23° |
| 2026-05-05 12:51 | 44.30707 | -1.19713 | 39967 ft | 502 kts | 23° |
| 2026-05-05 12:52 | 44.37068 | -1.15654 | 39967 ft | 502 kts | 23° |
| 2026-05-05 12:52 | 44.43423 | -1.11589 | 39976 ft | 501 kts | 24° |
| 2026-05-05 12:53 | 44.49768 | -1.07520 | 39968 ft | 502 kts | 24° |
| 2026-05-05 12:53 | 44.56112 | -1.03442 | 39969 ft | 502 kts | 24° |
| 2026-05-05 12:54 | 44.65610 | -0.97319 | 39970 ft | 503 kts | 24° |
| 2026-05-05 12:55 | 44.71976 | -0.93202 | 39966 ft | 503 kts | 24° |
| 2026-05-05 12:55 | 44.78338 | -0.89078 | 39966 ft | 503 kts | 24° |
| 2026-05-05 12:56 | 44.84711 | -0.84937 | 39970 ft | 503 kts | 24° |
| 2026-05-05 12:56 | 44.91074 | -0.80792 | 39967 ft | 503 kts | 24° |
| 2026-05-05 12:57 | 44.97389 | -0.76668 | 39963 ft | 503 kts | 24° |
| 2026-05-05 12:57 | 45.03741 | -0.72510 | 39956 ft | 503 kts | 24° |
| 2026-05-05 12:58 | 45.10085 | -0.68347 | 39954 ft | 503 kts | 24° |
| 2026-05-05 12:58 | 45.16436 | -0.64169 | 39951 ft | 503 kts | 24° |
| 2026-05-05 12:59 | 45.22784 | -0.59982 | 39957 ft | 503 kts | 24° |
| 2026-05-05 12:59 | 45.29128 | -0.55789 | 39948 ft | 502 kts | 24° |
| 2026-05-05 13:00 | 45.38629 | -0.49487 | 39944 ft | 501 kts | 24° |
| 2026-05-05 13:01 | 45.51203 | -0.41112 | 39941 ft | 499 kts | 24° |
| 2026-05-05 13:01 | 45.57492 | -0.36907 | 39940 ft | 498 kts | 24° |
| 2026-05-05 13:02 | 45.63772 | -0.32698 | 39937 ft | 498 kts | 24° |
| 2026-05-05 13:02 | 45.70051 | -0.28524 | 39940 ft | 497 kts | 24° |
| 2026-05-05 13:03 | 45.76364 | -0.24424 | 39920 ft | 497 kts | 24° |
| 2026-05-05 13:03 | 45.82658 | -0.20333 | 39916 ft | 498 kts | 24° |
| 2026-05-05 13:04 | 45.88974 | -0.16202 | 39914 ft | 498 kts | 24° |
| 2026-05-05 13:04 | 45.95286 | -0.12054 | 39910 ft | 499 kts | 24° |
| 2026-05-05 13:05 | 46.01618 | -0.07881 | 39906 ft | 500 kts | 24° |
| 2026-05-05 13:05 | 46.07909 | -0.03727 | 39903 ft | 501 kts | 24° |
| 2026-05-05 13:06 | 46.14243 | 0.00466 | 39894 ft | 501 kts | 24° |
| 2026-05-05 13:06 | 46.20587 | 0.04677 | 39895 ft | 501 kts | 24° |
| 2026-05-05 13:07 | 46.26923 | 0.08893 | 39896 ft | 501 kts | 24° |
| 2026-05-05 13:07 | 46.33257 | 0.13119 | 39890 ft | 501 kts | 24° |
| 2026-05-05 13:08 | 46.39590 | 0.17354 | 39895 ft | 501 kts | 24° |
| 2026-05-05 13:08 | 46.45919 | 0.21599 | 39886 ft | 500 kts | 24° |
| 2026-05-05 13:09 | 46.52238 | 0.25847 | 39885 ft | 500 kts | 24° |
| 2026-05-05 13:09 | 46.58600 | 0.29771 | 39894 ft | 499 kts | 18° |
| 2026-05-05 13:10 | 46.65328 | 0.32190 | 39890 ft | 498 kts | 11° |
| 2026-05-05 13:10 | 46.72119 | 0.34171 | 39882 ft | 498 kts | 11° |
| 2026-05-05 13:11 | 46.78063 | 0.35954 | 39883 ft | 498 kts | 11° |
| 2026-05-05 13:11 | 46.79147 | 0.36286 | 39881 ft | 498 kts | 11° |
| 2026-05-05 13:12 | 46.80426 | 0.36679 | 39876 ft | 498 kts | 11° |
| 2026-05-05 13:13 | 46.87207 | 0.38781 | 39867 ft | 498 kts | 11° |
| 2026-05-05 13:13 | 46.93947 | 0.40881 | 39860 ft | 498 kts | 11° |
| 2026-05-05 13:14 | 46.97336 | 0.41937 | 39726 ft | 500 kts | 11° |
| 2026-05-05 13:14 | 47.00739 | 0.42999 | 39252 ft | 498 kts | 11° |
| 2026-05-05 13:14 | 47.04105 | 0.44050 | 38852 ft | 491 kts | 11° |
| 2026-05-05 13:14 | 47.07436 | 0.45092 | 38406 ft | 486 kts | 11° |
| 2026-05-05 13:15 | 47.10718 | 0.46108 | 37943 ft | 480 kts | 11° |
| 2026-05-05 13:15 | 47.13976 | 0.47095 | 37504 ft | 474 kts | 11° |
| 2026-05-05 13:15 | 47.17185 | 0.48059 | 37111 ft | 468 kts | 11° |
| 2026-05-05 13:15 | 47.20354 | 0.49010 | 36711 ft | 461 kts | 12° |
| 2026-05-05 13:16 | 47.23478 | 0.49950 | 36333 ft | 455 kts | 12° |
| 2026-05-05 13:16 | 47.26561 | 0.50880 | 35958 ft | 450 kts | 12° |
| 2026-05-05 13:16 | 47.29611 | 0.51804 | 35574 ft | 444 kts | 12° |
| 2026-05-05 13:16 | 47.32623 | 0.52718 | 35197 ft | 440 kts | 13° |
| 2026-05-05 13:17 | 47.35607 | 0.53626 | 34808 ft | 435 kts | 13° |
| 2026-05-05 13:17 | 47.38517 | 0.54513 | 34434 ft | 431 kts | 13° |
| 2026-05-05 13:17 | 47.41443 | 0.55405 | 34058 ft | 426 kts | 13° |
| 2026-05-05 13:17 | 47.44343 | 0.56290 | 33648 ft | 422 kts | 14° |
| 2026-05-05 13:18 | 47.47206 | 0.57165 | 33226 ft | 417 kts | 14° |
| 2026-05-05 13:18 | 47.50029 | 0.58029 | 32843 ft | 412 kts | 14° |
| 2026-05-05 13:18 | 47.52816 | 0.58882 | 32478 ft | 406 kts | 14° |
| 2026-05-05 13:18 | 47.55561 | 0.59724 | 32129 ft | 400 kts | 14° |
| 2026-05-05 13:19 | 47.58266 | 0.60554 | 31776 ft | 394 kts | 15° |
| 2026-05-05 13:19 | 47.60944 | 0.61377 | 31413 ft | 389 kts | 15° |
| 2026-05-05 13:19 | 47.63573 | 0.62186 | 31070 ft | 384 kts | 15° |
| 2026-05-05 13:19 | 47.66176 | 0.62987 | 30727 ft | 379 kts | 15° |
| 2026-05-05 13:20 | 47.68745 | 0.63779 | 30399 ft | 375 kts | 15° |
| 2026-05-05 13:20 | 47.71254 | 0.64554 | 30072 ft | 371 kts | 15° |
| 2026-05-05 13:20 | 47.73770 | 0.65331 | 29701 ft | 367 kts | 15° |
| 2026-05-05 13:20 | 47.76257 | 0.66101 | 29316 ft | 362 kts | 15° |
| 2026-05-05 13:21 | 47.78708 | 0.66860 | 28979 ft | 358 kts | 15° |
| 2026-05-05 13:21 | 47.81136 | 0.67612 | 28608 ft | 353 kts | 15° |
| 2026-05-05 13:21 | 47.83529 | 0.68355 | 28294 ft | 350 kts | 15° |
| 2026-05-05 13:21 | 47.85924 | 0.69100 | 27958 ft | 352 kts | 15° |
| 2026-05-05 13:22 | 47.88324 | 0.69849 | 27639 ft | 363 kts | 15° |
| 2026-05-05 13:22 | 47.90828 | 0.70632 | 27283 ft | 370 kts | 14° |
| 2026-05-05 13:22 | 47.93344 | 0.71415 | 26912 ft | 367 kts | 14° |
| 2026-05-05 13:22 | 47.95833 | 0.72188 | 26554 ft | 363 kts | 14° |
| 2026-05-05 13:23 | 47.98302 | 0.72956 | 26201 ft | 360 kts | 14° |
| 2026-05-05 13:23 | 48.00738 | 0.73715 | 25873 ft | 356 kts | 14° |
| 2026-05-05 13:23 | 48.03153 | 0.74470 | 25525 ft | 353 kts | 14° |
| 2026-05-05 13:23 | 48.05542 | 0.75217 | 25199 ft | 349 kts | 14° |
| 2026-05-05 13:24 | 48.07913 | 0.75959 | 24868 ft | 346 kts | 14° |
| 2026-05-05 13:24 | 48.10263 | 0.76696 | 24541 ft | 343 kts | 14° |
| 2026-05-05 13:24 | 48.12591 | 0.77426 | 24225 ft | 341 kts | 14° |
| 2026-05-05 13:24 | 48.14899 | 0.78152 | 23893 ft | 338 kts | 14° |
| 2026-05-05 13:25 | 48.17202 | 0.78876 | 23589 ft | 336 kts | 14° |
| 2026-05-05 13:25 | 48.19478 | 0.79592 | 23242 ft | 334 kts | 14° |
| 2026-05-05 13:25 | 48.21740 | 0.80305 | 22875 ft | 331 kts | 14° |
| 2026-05-05 13:25 | 48.23986 | 0.81012 | 22529 ft | 328 kts | 14° |
| 2026-05-05 13:26 | 48.26177 | 0.81704 | 22225 ft | 325 kts | 13° |
| 2026-05-05 13:26 | 48.28392 | 0.82403 | 21902 ft | 326 kts | 13° |
| 2026-05-05 13:26 | 48.30642 | 0.83115 | 21577 ft | 335 kts | 14° |
| 2026-05-05 13:26 | 48.32912 | 0.83944 | 21218 ft | 335 kts | 23° |
| 2026-05-05 13:27 | 48.34850 | 0.85797 | 20881 ft | 329 kts | 46° |
| 2026-05-05 13:27 | 48.36205 | 0.88513 | 20538 ft | 322 kts | 63° |
| 2026-05-05 13:27 | 48.37220 | 0.91501 | 20197 ft | 319 kts | 65° |
| 2026-05-05 13:27 | 48.37873 | 0.93470 | 19960 ft | 317 kts | 65° |
| 2026-05-05 13:28 | 48.38863 | 0.96420 | 19634 ft | 315 kts | 64° |
| 2026-05-05 13:28 | 48.39858 | 0.99343 | 19290 ft | 313 kts | 64° |
| 2026-05-05 13:28 | 48.40855 | 1.02254 | 18953 ft | 311 kts | 64° |
| 2026-05-05 13:28 | 48.41845 | 1.05139 | 18646 ft | 311 kts | 64° |
| 2026-05-05 13:29 | 48.42851 | 1.08059 | 18354 ft | 318 kts | 64° |
| 2026-05-05 13:29 | 48.43869 | 1.11016 | 18031 ft | 319 kts | 64° |
| 2026-05-05 13:29 | 48.44894 | 1.13996 | 17690 ft | 320 kts | 64° |
| 2026-05-05 13:29 | 48.45916 | 1.16969 | 17352 ft | 319 kts | 64° |
| 2026-05-05 13:30 | 48.46925 | 1.19907 | 17034 ft | 317 kts | 64° |
| 2026-05-05 13:30 | 48.47938 | 1.22862 | 16716 ft | 315 kts | 64° |
| 2026-05-05 13:30 | 48.48940 | 1.25784 | 16411 ft | 313 kts | 64° |
| 2026-05-05 13:30 | 48.49935 | 1.28694 | 16092 ft | 310 kts | 64° |
| 2026-05-05 13:31 | 48.50908 | 1.31544 | 15816 ft | 308 kts | 64° |
| 2026-05-05 13:31 | 48.51885 | 1.34402 | 15517 ft | 305 kts | 64° |
| 2026-05-05 13:31 | 48.52859 | 1.37238 | 15229 ft | 303 kts | 63° |
| 2026-05-05 13:31 | 48.53829 | 1.40056 | 14917 ft | 301 kts | 63° |
| 2026-05-05 13:32 | 48.54786 | 1.42847 | 14629 ft | 299 kts | 63° |
| 2026-05-05 13:32 | 48.55739 | 1.45629 | 14346 ft | 297 kts | 63° |
| 2026-05-05 13:32 | 48.56685 | 1.48386 | 14059 ft | 293 kts | 61° |
| 2026-05-05 13:32 | 48.57941 | 1.50756 | 13767 ft | 290 kts | 40° |
| 2026-05-05 13:33 | 48.59687 | 1.52320 | 13489 ft | 294 kts | 27° |
| 2026-05-05 13:33 | 48.61535 | 1.53646 | 13177 ft | 295 kts | 27° |
| 2026-05-05 13:33 | 48.63396 | 1.54992 | 12878 ft | 296 kts | 27° |
| 2026-05-05 13:33 | 48.65253 | 1.56345 | 12557 ft | 297 kts | 27° |
| 2026-05-05 13:34 | 48.66986 | 1.57615 | 12294 ft | 293 kts | 27° |
| 2026-05-05 13:34 | 48.68805 | 1.58955 | 12004 ft | 289 kts | 27° |
| 2026-05-05 13:34 | 48.70597 | 1.60279 | 11722 ft | 286 kts | 28° |
| 2026-05-05 13:34 | 48.72385 | 1.61604 | 11445 ft | 286 kts | 28° |
| 2026-05-05 13:35 | 48.74167 | 1.62926 | 11175 ft | 286 kts | 28° |
| 2026-05-05 13:35 | 48.75945 | 1.64272 | 10896 ft | 286 kts | 30° |
| 2026-05-05 13:35 | 48.77695 | 1.65703 | 10621 ft | 285 kts | 31° |
| 2026-05-05 13:35 | 48.79433 | 1.67164 | 10353 ft | 285 kts | 31° |
| 2026-05-05 13:36 | 48.81160 | 1.68638 | 10084 ft | 283 kts | 32° |
| 2026-05-05 13:36 | 48.82861 | 1.70103 | 9836 ft | 279 kts | 31° |
| 2026-05-05 13:36 | 48.84534 | 1.71533 | 9577 ft | 274 kts | 32° |
| 2026-05-05 13:36 | 48.86178 | 1.72953 | 9324 ft | 269 kts | 32° |
| 2026-05-05 13:37 | 48.87772 | 1.74319 | 9120 ft | 265 kts | 31° |
| 2026-05-05 13:37 | 48.89380 | 1.75696 | 8893 ft | 260 kts | 34° |
| 2026-05-05 13:37 | 48.90644 | 1.77582 | 8664 ft | 256 kts | 57° |
| 2026-05-05 13:37 | 48.91527 | 1.79947 | 8472 ft | 257 kts | 62° |
| 2026-05-05 13:38 | 48.92387 | 1.82343 | 8244 ft | 259 kts | 62° |
| 2026-05-05 13:38 | 48.93035 | 1.84840 | 8050 ft | 255 kts | 76° |
| 2026-05-05 13:38 | 48.93375 | 1.87492 | 7814 ft | 258 kts | 79° |
| 2026-05-05 13:38 | 48.93681 | 1.90200 | 7581 ft | 261 kts | 79° |
| 2026-05-05 13:39 | 48.94008 | 1.92912 | 7344 ft | 260 kts | 78° |
| 2026-05-05 13:39 | 48.94349 | 1.95562 | 7093 ft | 257 kts | 78° |
| 2026-05-05 13:39 | 48.94703 | 1.98199 | 6843 ft | 254 kts | 78° |
| 2026-05-05 13:39 | 48.95064 | 2.00818 | 6614 ft | 252 kts | 77° |
| 2026-05-05 13:40 | 48.95428 | 2.03403 | 6387 ft | 246 kts | 77° |
| 2026-05-05 13:40 | 48.95774 | 2.05836 | 6296 ft | 226 kts | 77° |
| 2026-05-05 13:40 | 48.96098 | 2.08110 | 6054 ft | 213 kts | 77° |
| 2026-05-05 13:40 | 48.96401 | 2.10241 | 5846 ft | 207 kts | 77° |
| 2026-05-05 13:41 | 48.96698 | 2.12333 | 5662 ft | 197 kts | 77° |
| 2026-05-05 13:41 | 48.96935 | 2.14333 | 5515 ft | 188 kts | 80° |
| 2026-05-05 13:41 | 48.97097 | 2.16288 | 5329 ft | 186 kts | 82° |
| 2026-05-05 13:41 | 48.97224 | 2.18230 | 5146 ft | 185 kts | 82° |
| 2026-05-05 13:42 | 48.97337 | 2.20162 | 5033 ft | 182 kts | 83° |
| 2026-05-05 13:42 | 48.97442 | 2.22043 | 4816 ft | 183 kts | 83° |
| 2026-05-05 13:42 | 48.97547 | 2.23978 | 4589 ft | 183 kts | 83° |
| 2026-05-05 13:42 | 48.97649 | 2.25904 | 4326 ft | 180 kts | 83° |
| 2026-05-05 13:43 | 48.97750 | 2.27803 | 4074 ft | 180 kts | 82° |
| 2026-05-05 13:43 | 48.97851 | 2.29676 | 3849 ft | 179 kts | 83° |
| 2026-05-05 13:43 | 48.97951 | 2.31577 | 3614 ft | 177 kts | 82° |
| 2026-05-05 13:43 | 48.98048 | 2.33379 | 3398 ft | 165 kts | 83° |
| 2026-05-05 13:44 | 48.98138 | 2.35061 | 3163 ft | 156 kts | 83° |
| 2026-05-05 13:44 | 48.98226 | 2.36701 | 2958 ft | 158 kts | 81° |
| 2026-05-05 13:44 | 48.98315 | 2.38328 | 2741 ft | 157 kts | 81° |
| 2026-05-05 13:44 | 48.98401 | 2.39962 | 2533 ft | 155 kts | 81° |
| 2026-05-05 13:45 | 48.98490 | 2.41609 | 2328 ft | 156 kts | 81° |
| 2026-05-05 13:45 | 48.98578 | 2.43272 | 2122 ft | 158 kts | 81° |
| 2026-05-05 13:45 | 48.98668 | 2.44934 | 1901 ft | 156 kts | 81° |
| 2026-05-05 13:45 | 48.98750 | 2.46504 | 1701 ft | 141 kts | 79° |
| 2026-05-05 13:46 | 48.98826 | 2.47922 | 1516 ft | 132 kts | 79° |
| 2026-05-05 13:46 | 48.98905 | 2.49360 | 1356 ft | 138 kts | 79° |
| 2026-05-05 13:46 | 48.98982 | 2.50800 | 1122 ft | 134 kts | 81° |
| 2026-05-05 13:46 | 48.99049 | 2.52185 | 921 ft | 130 kts | 79° |
| 2026-05-05 13:47 | 48.99133 | 2.53555 | 748 ft | 131 kts | 82° |
| 2026-05-05 13:47 | 48.99201 | 2.54949 | 628 ft | 132 kts | 82° |
| 2026-05-05 13:47 | 48.99280 | 2.56345 | 405 ft | 131 kts | 84° |
| 2026-05-05 13:47 | 48.99349 | 2.57636 | 360 ft | 109 kts | 85° |
| 2026-05-05 13:48 | 48.99393 | 2.58472 | 357 ft | 58 kts | 85° |
| 2026-05-05 13:48 | 48.99418 | 2.58937 | 359 ft | 17 kts | 85° |
| 2026-05-05 13:48 | 48.99431 | 2.59124 | 362 ft | 18 kts | 76° |
| 2026-05-05 13:48 | 48.99479 | 2.59294 | 365 ft | 17 kts | 64° |
| 2026-05-05 13:49 | 48.99530 | 2.59460 | 364 ft | 18 kts | 66° |
| 2026-05-05 13:49 | 48.99579 | 2.59625 | 366 ft | 13 kts | 65° |
| 2026-05-05 13:49 | 48.99651 | 2.59691 | 365 ft | 13 kts | 2° |
| 2026-05-05 13:49 | 48.99687 | 2.59688 | 363 ft | 0 kts | 355° |
| 2026-05-05 13:50 | 48.99702 | 2.59686 | 360 ft | 6 kts | 355° |
| 2026-05-05 13:50 | 48.99767 | 2.59678 | 365 ft | 13 kts | 355° |
| 2026-05-05 13:50 | 48.99884 | 2.59663 | 360 ft | 7 kts | 355° |
| 2026-05-05 13:51 | 48.99914 | 2.59660 | 366 ft | 9 kts | 355° |
| 2026-05-05 13:51 | 48.99937 | 2.59657 | 361 ft | 7 kts | 355° |
| 2026-05-05 13:51 | 49.00013 | 2.59647 | 365 ft | 15 kts | 355° |
| 2026-05-05 13:51 | 49.00055 | 2.59634 | 365 ft | 7 kts | 333° |
| 2026-05-05 13:52 | 49.00080 | 2.59532 | 362 ft | 13 kts | 263° |
| 2026-05-05 13:52 | 49.00067 | 2.59367 | 363 ft | 7 kts | 265° |
| 2026-05-05 13:52 | 49.00060 | 2.59229 | 367 ft | 19 kts | 265° |
| 2026-05-05 13:52 | 49.00050 | 2.59026 | 364 ft | 24 kts | 265° |
| 2026-05-05 13:53 | 49.00039 | 2.58852 | 359 ft | 16 kts | 265° |
| 2026-05-05 13:53 | 49.00030 | 2.58692 | 363 ft | 14 kts | 265° |
| 2026-05-05 13:53 | 49.00023 | 2.58546 | 359 ft | 14 kts | 266° |
| 2026-05-05 13:53 | 49.00016 | 2.58400 | 366 ft | 14 kts | 266° |
| 2026-05-05 13:54 | 49.00009 | 2.58254 | 363 ft | 14 kts | 265° |
| 2026-05-05 13:54 | 49.00001 | 2.58108 | 367 ft | 14 kts | 265° |
| 2026-05-05 13:54 | 48.99993 | 2.57962 | 364 ft | 14 kts | 265° |
| 2026-05-05 13:54 | 48.99985 | 2.57817 | 364 ft | 13 kts | 265° |
| 2026-05-05 13:55 | 49.00018 | 2.57731 | 363 ft | 10 kts | 338° |
| 2026-05-05 13:55 | 49.00050 | 2.57706 | 367 ft | 5 kts | 313° |
| 2026-05-05 13:55 | 49.00059 | 2.57656 | 366 ft | 5 kts | 266° |
| 2026-05-05 13:55 | 49.00055 | 2.57605 | 362 ft | 5 kts | 265° |
| 2026-05-05 13:56 | 49.00052 | 2.57553 | 361 ft | 5 kts | 264° |
| 2026-05-05 13:56 | 49.00048 | 2.57485 | 365 ft | 8 kts | 265° |
| 2026-05-05 13:56 | 49.00067 | 2.57408 | 365 ft | 8 kts | 330° |
| 2026-05-05 13:56 | 49.00092 | 2.57415 | 365 ft | 4 kts | 25° |
| 2026-05-05 13:57 | 49.00116 | 2.57431 | 365 ft | 3 kts | 18° |
| 2026-05-05 13:57 | 49.00121 | 2.57432 | 363 ft | 0 kts | 16° |